<?xml version="1.0" encoding="UTF-8" standalone="no" ?>
<gpx xmlns="http://www.topografix.com/GPX/1/1" xmlns:xsi="http://www.w3.org/2001/XMLSchema-instance" xsi:schemaLocation="http://www.topografix.com/GPX/1/1 http://www.topografix.com/GPX/1/1/gpx.xsd" version="1.1" creator="VisuGPX - https://www.visugpx.com">
  <metadata>
    <name>Seillon découverte VTT</name>
    <desc><![CDATA[Tour VTT découverte (facile) au départ de Seillon]]></desc>
  </metadata>
  <trk>
    <name><![CDATA[20180322223749-HPkE4]]></name>
    <trkseg>
      <trkpt lat="43.50368" lon="5.88662">
        <ele>311</ele>
        <time>2018-03-18T07:13:49Z</time>
      </trkpt>
      <trkpt lat="43.50383" lon="5.88648">
        <ele>312</ele>
        <time>2018-03-18T07:14:18Z</time>
      </trkpt>
      <trkpt lat="43.50399" lon="5.88632">
        <ele>313</ele>
        <time>2018-03-18T07:14:29Z</time>
      </trkpt>
      <trkpt lat="43.50416" lon="5.88621">
        <ele>313</ele>
        <time>2018-03-18T07:14:39Z</time>
      </trkpt>
      <trkpt lat="43.50434" lon="5.88611">
        <ele>317</ele>
        <time>2018-03-18T07:14:50Z</time>
      </trkpt>
      <trkpt lat="43.50451" lon="5.88601">
        <ele>317</ele>
        <time>2018-03-18T07:14:58Z</time>
      </trkpt>
      <trkpt lat="43.50468" lon="5.8859">
        <ele>317</ele>
        <time>2018-03-18T07:15:07Z</time>
      </trkpt>
      <trkpt lat="43.50484" lon="5.88577">
        <ele>318</ele>
        <time>2018-03-18T07:15:15Z</time>
      </trkpt>
      <trkpt lat="43.50502" lon="5.88565">
        <ele>319</ele>
        <time>2018-03-18T07:15:24Z</time>
      </trkpt>
      <trkpt lat="43.50519" lon="5.88552">
        <ele>321</ele>
        <time>2018-03-18T07:15:34Z</time>
      </trkpt>
      <trkpt lat="43.50534" lon="5.88538">
        <ele>322</ele>
        <time>2018-03-18T07:15:43Z</time>
      </trkpt>
      <trkpt lat="43.50546" lon="5.88518">
        <ele>322</ele>
        <time>2018-03-18T07:15:53Z</time>
      </trkpt>
      <trkpt lat="43.50558" lon="5.88497">
        <ele>325</ele>
        <time>2018-03-18T07:16:01Z</time>
      </trkpt>
      <trkpt lat="43.50571" lon="5.88479">
        <ele>325</ele>
        <time>2018-03-18T07:16:10Z</time>
      </trkpt>
      <trkpt lat="43.50588" lon="5.88463">
        <ele>324</ele>
        <time>2018-03-18T07:16:19Z</time>
      </trkpt>
      <trkpt lat="43.50603" lon="5.8845">
        <ele>325</ele>
        <time>2018-03-18T07:16:28Z</time>
      </trkpt>
      <trkpt lat="43.50622" lon="5.8845">
        <ele>324</ele>
        <time>2018-03-18T07:16:37Z</time>
      </trkpt>
      <trkpt lat="43.5064" lon="5.88444">
        <ele>324</ele>
        <time>2018-03-18T07:16:47Z</time>
      </trkpt>
      <trkpt lat="43.50659" lon="5.88439">
        <ele>323</ele>
        <time>2018-03-18T07:16:55Z</time>
      </trkpt>
      <trkpt lat="43.50676" lon="5.88428">
        <ele>325</ele>
        <time>2018-03-18T07:17:03Z</time>
      </trkpt>
      <trkpt lat="43.5069" lon="5.88409">
        <ele>326</ele>
        <time>2018-03-18T07:17:14Z</time>
      </trkpt>
      <trkpt lat="43.50701" lon="5.88387">
        <ele>328</ele>
        <time>2018-03-18T07:17:25Z</time>
      </trkpt>
      <trkpt lat="43.50715" lon="5.88366">
        <ele>329</ele>
        <time>2018-03-18T07:17:34Z</time>
      </trkpt>
      <trkpt lat="43.50728" lon="5.88345">
        <ele>328</ele>
        <time>2018-03-18T07:17:42Z</time>
      </trkpt>
      <trkpt lat="43.50738" lon="5.88321">
        <ele>332</ele>
        <time>2018-03-18T07:17:50Z</time>
      </trkpt>
      <trkpt lat="43.50753" lon="5.88306">
        <ele>332</ele>
        <time>2018-03-18T07:17:59Z</time>
      </trkpt>
      <trkpt lat="43.50769" lon="5.88291">
        <ele>335</ele>
        <time>2018-03-18T07:18:07Z</time>
      </trkpt>
      <trkpt lat="43.50788" lon="5.88287">
        <ele>336</ele>
        <time>2018-03-18T07:18:16Z</time>
      </trkpt>
      <trkpt lat="43.50808" lon="5.88293">
        <ele>336</ele>
        <time>2018-03-18T07:18:26Z</time>
      </trkpt>
      <trkpt lat="43.50822" lon="5.8831">
        <ele>334</ele>
        <time>2018-03-18T07:18:34Z</time>
      </trkpt>
      <trkpt lat="43.50826" lon="5.88337">
        <ele>330</ele>
        <time>2018-03-18T07:18:43Z</time>
      </trkpt>
      <trkpt lat="43.50824" lon="5.88362">
        <ele>329</ele>
        <time>2018-03-18T07:18:51Z</time>
      </trkpt>
      <trkpt lat="43.50822" lon="5.88388">
        <ele>329</ele>
        <time>2018-03-18T07:18:59Z</time>
      </trkpt>
      <trkpt lat="43.50837" lon="5.88405">
        <ele>331</ele>
        <time>2018-03-18T07:19:08Z</time>
      </trkpt>
      <trkpt lat="43.50854" lon="5.88416">
        <ele>332</ele>
        <time>2018-03-18T07:19:17Z</time>
      </trkpt>
      <trkpt lat="43.5087" lon="5.88429">
        <ele>336</ele>
        <time>2018-03-18T07:19:25Z</time>
      </trkpt>
      <trkpt lat="43.50887" lon="5.88444">
        <ele>337</ele>
        <time>2018-03-18T07:19:34Z</time>
      </trkpt>
      <trkpt lat="43.50904" lon="5.88457">
        <ele>338</ele>
        <time>2018-03-18T07:19:43Z</time>
      </trkpt>
      <trkpt lat="43.50917" lon="5.88475">
        <ele>341</ele>
        <time>2018-03-18T07:19:52Z</time>
      </trkpt>
      <trkpt lat="43.50933" lon="5.88491">
        <ele>341</ele>
        <time>2018-03-18T07:20:02Z</time>
      </trkpt>
      <trkpt lat="43.50952" lon="5.88496">
        <ele>341</ele>
        <time>2018-03-18T07:20:11Z</time>
      </trkpt>
      <trkpt lat="43.50971" lon="5.88495">
        <ele>341</ele>
        <time>2018-03-18T07:20:20Z</time>
      </trkpt>
      <trkpt lat="43.50989" lon="5.88495">
        <ele>341</ele>
        <time>2018-03-18T07:20:28Z</time>
      </trkpt>
      <trkpt lat="43.51009" lon="5.88493">
        <ele>343</ele>
        <time>2018-03-18T07:20:37Z</time>
      </trkpt>
      <trkpt lat="43.51027" lon="5.88501">
        <ele>347</ele>
        <time>2018-03-18T07:20:46Z</time>
      </trkpt>
      <trkpt lat="43.51045" lon="5.88512">
        <ele>349</ele>
        <time>2018-03-18T07:20:55Z</time>
      </trkpt>
      <trkpt lat="43.51063" lon="5.88524">
        <ele>350</ele>
        <time>2018-03-18T07:21:04Z</time>
      </trkpt>
      <trkpt lat="43.51079" lon="5.88536">
        <ele>351</ele>
        <time>2018-03-18T07:21:12Z</time>
      </trkpt>
      <trkpt lat="43.51093" lon="5.88556">
        <ele>354</ele>
        <time>2018-03-18T07:21:21Z</time>
      </trkpt>
      <trkpt lat="43.51102" lon="5.88579">
        <ele>354</ele>
        <time>2018-03-18T07:21:30Z</time>
      </trkpt>
      <trkpt lat="43.51105" lon="5.88604">
        <ele>357</ele>
        <time>2018-03-18T07:21:38Z</time>
      </trkpt>
      <trkpt lat="43.51104" lon="5.88629">
        <ele>358</ele>
        <time>2018-03-18T07:21:46Z</time>
      </trkpt>
      <trkpt lat="43.51104" lon="5.88656">
        <ele>358</ele>
        <time>2018-03-18T07:21:55Z</time>
      </trkpt>
      <trkpt lat="43.51119" lon="5.88672">
        <ele>361</ele>
        <time>2018-03-18T07:22:05Z</time>
      </trkpt>
      <trkpt lat="43.51138" lon="5.88676">
        <ele>361</ele>
        <time>2018-03-18T07:22:15Z</time>
      </trkpt>
      <trkpt lat="43.51153" lon="5.88694">
        <ele>361</ele>
        <time>2018-03-18T07:22:25Z</time>
      </trkpt>
      <trkpt lat="43.51171" lon="5.88705">
        <ele>360</ele>
        <time>2018-03-18T07:22:35Z</time>
      </trkpt>
      <trkpt lat="43.51189" lon="5.88705">
        <ele>360</ele>
        <time>2018-03-18T07:22:44Z</time>
      </trkpt>
      <trkpt lat="43.51208" lon="5.8871">
        <ele>360</ele>
        <time>2018-03-18T07:22:54Z</time>
      </trkpt>
      <trkpt lat="43.51228" lon="5.88709">
        <ele>360</ele>
        <time>2018-03-18T07:23:05Z</time>
      </trkpt>
      <trkpt lat="43.51246" lon="5.88721">
        <ele>360</ele>
        <time>2018-03-18T07:23:15Z</time>
      </trkpt>
      <trkpt lat="43.51262" lon="5.88734">
        <ele>362</ele>
        <time>2018-03-18T07:23:25Z</time>
      </trkpt>
      <trkpt lat="43.51278" lon="5.88748">
        <ele>362</ele>
        <time>2018-03-18T07:23:35Z</time>
      </trkpt>
      <trkpt lat="43.51284" lon="5.88774">
        <ele>364</ele>
        <time>2018-03-18T07:23:46Z</time>
      </trkpt>
      <trkpt lat="43.51286" lon="5.888">
        <ele>365</ele>
        <time>2018-03-18T07:23:54Z</time>
      </trkpt>
      <trkpt lat="43.51301" lon="5.88815">
        <ele>365</ele>
        <time>2018-03-18T07:24:05Z</time>
      </trkpt>
      <trkpt lat="43.51318" lon="5.88823">
        <ele>365</ele>
        <time>2018-03-18T07:24:16Z</time>
      </trkpt>
      <trkpt lat="43.51327" lon="5.88846">
        <ele>368</ele>
        <time>2018-03-18T07:24:31Z</time>
      </trkpt>
      <trkpt lat="43.51327" lon="5.88872">
        <ele>371</ele>
        <time>2018-03-18T07:24:42Z</time>
      </trkpt>
      <trkpt lat="43.51325" lon="5.88898">
        <ele>372</ele>
        <time>2018-03-18T07:24:55Z</time>
      </trkpt>
      <trkpt lat="43.51322" lon="5.88924">
        <ele>376</ele>
        <time>2018-03-18T07:25:07Z</time>
      </trkpt>
      <trkpt lat="43.51316" lon="5.88948">
        <ele>379</ele>
        <time>2018-03-18T07:25:18Z</time>
      </trkpt>
      <trkpt lat="43.51307" lon="5.88972">
        <ele>381</ele>
        <time>2018-03-18T07:25:31Z</time>
      </trkpt>
      <trkpt lat="43.51297" lon="5.88993">
        <ele>382</ele>
        <time>2018-03-18T07:25:42Z</time>
      </trkpt>
      <trkpt lat="43.51284" lon="5.8901">
        <ele>387</ele>
        <time>2018-03-18T07:25:54Z</time>
      </trkpt>
      <trkpt lat="43.51274" lon="5.89032">
        <ele>388</ele>
        <time>2018-03-18T07:26:07Z</time>
      </trkpt>
      <trkpt lat="43.51261" lon="5.8905">
        <ele>388</ele>
        <time>2018-03-18T07:26:19Z</time>
      </trkpt>
      <trkpt lat="43.51245" lon="5.89065">
        <ele>390</ele>
        <time>2018-03-18T07:26:32Z</time>
      </trkpt>
      <trkpt lat="43.51231" lon="5.89082">
        <ele>390</ele>
        <time>2018-03-18T07:26:45Z</time>
      </trkpt>
      <trkpt lat="43.51217" lon="5.89098">
        <ele>393</ele>
        <time>2018-03-18T07:26:58Z</time>
      </trkpt>
      <trkpt lat="43.51203" lon="5.89114">
        <ele>394</ele>
        <time>2018-03-18T07:27:09Z</time>
      </trkpt>
      <trkpt lat="43.51188" lon="5.89127">
        <ele>394</ele>
        <time>2018-03-18T07:27:20Z</time>
      </trkpt>
      <trkpt lat="43.51173" lon="5.89144">
        <ele>394</ele>
        <time>2018-03-18T07:27:33Z</time>
      </trkpt>
      <trkpt lat="43.51155" lon="5.89153">
        <ele>396</ele>
        <time>2018-03-18T07:27:44Z</time>
      </trkpt>
      <trkpt lat="43.51138" lon="5.89162">
        <ele>396</ele>
        <time>2018-03-18T07:27:54Z</time>
      </trkpt>
      <trkpt lat="43.51124" lon="5.8918">
        <ele>399</ele>
        <time>2018-03-18T07:28:06Z</time>
      </trkpt>
      <trkpt lat="43.51113" lon="5.89202">
        <ele>400</ele>
        <time>2018-03-18T07:28:18Z</time>
      </trkpt>
      <trkpt lat="43.511" lon="5.89223">
        <ele>400</ele>
        <time>2018-03-18T07:28:30Z</time>
      </trkpt>
      <trkpt lat="43.51092" lon="5.89245">
        <ele>401</ele>
        <time>2018-03-18T07:28:39Z</time>
      </trkpt>
      <trkpt lat="43.51084" lon="5.89268">
        <ele>403</ele>
        <time>2018-03-18T07:28:52Z</time>
      </trkpt>
      <trkpt lat="43.51099" lon="5.89283">
        <ele>404</ele>
        <time>2018-03-18T07:29:15Z</time>
      </trkpt>
      <trkpt lat="43.51118" lon="5.89289">
        <ele>404</ele>
        <time>2018-03-18T07:29:27Z</time>
      </trkpt>
      <trkpt lat="43.51137" lon="5.89296">
        <ele>404</ele>
        <time>2018-03-18T07:29:37Z</time>
      </trkpt>
      <trkpt lat="43.51156" lon="5.89301">
        <ele>405</ele>
        <time>2018-03-18T07:29:47Z</time>
      </trkpt>
      <trkpt lat="43.51175" lon="5.89303">
        <ele>405</ele>
        <time>2018-03-18T07:29:57Z</time>
      </trkpt>
      <trkpt lat="43.51195" lon="5.89308">
        <ele>405</ele>
        <time>2018-03-18T07:30:07Z</time>
      </trkpt>
      <trkpt lat="43.51211" lon="5.89321">
        <ele>405</ele>
        <time>2018-03-18T07:30:17Z</time>
      </trkpt>
      <trkpt lat="43.51226" lon="5.89339">
        <ele>408</ele>
        <time>2018-03-18T07:30:27Z</time>
      </trkpt>
      <trkpt lat="43.5124" lon="5.89355">
        <ele>408</ele>
        <time>2018-03-18T07:30:37Z</time>
      </trkpt>
      <trkpt lat="43.51256" lon="5.89369">
        <ele>410</ele>
        <time>2018-03-18T07:30:47Z</time>
      </trkpt>
      <trkpt lat="43.51267" lon="5.8939">
        <ele>411</ele>
        <time>2018-03-18T07:30:59Z</time>
      </trkpt>
      <trkpt lat="43.5128" lon="5.89411">
        <ele>411</ele>
        <time>2018-03-18T07:31:09Z</time>
      </trkpt>
      <trkpt lat="43.51295" lon="5.89425">
        <ele>412</ele>
        <time>2018-03-18T07:31:17Z</time>
      </trkpt>
      <trkpt lat="43.51315" lon="5.89432">
        <ele>412</ele>
        <time>2018-03-18T07:31:25Z</time>
      </trkpt>
      <trkpt lat="43.51335" lon="5.89432">
        <ele>412</ele>
        <time>2018-03-18T07:31:32Z</time>
      </trkpt>
      <trkpt lat="43.51353" lon="5.89433">
        <ele>411</ele>
        <time>2018-03-18T07:31:38Z</time>
      </trkpt>
      <trkpt lat="43.51371" lon="5.89436">
        <ele>411</ele>
        <time>2018-03-18T07:31:44Z</time>
      </trkpt>
      <trkpt lat="43.5139" lon="5.89448">
        <ele>410</ele>
        <time>2018-03-18T07:31:50Z</time>
      </trkpt>
      <trkpt lat="43.51407" lon="5.89434">
        <ele>410</ele>
        <time>2018-03-18T07:32:02Z</time>
      </trkpt>
      <trkpt lat="43.51419" lon="5.89414">
        <ele>411</ele>
        <time>2018-03-18T07:32:10Z</time>
      </trkpt>
      <trkpt lat="43.51436" lon="5.89401">
        <ele>411</ele>
        <time>2018-03-18T07:32:18Z</time>
      </trkpt>
      <trkpt lat="43.51453" lon="5.89386">
        <ele>411</ele>
        <time>2018-03-18T07:32:26Z</time>
      </trkpt>
      <trkpt lat="43.51473" lon="5.89382">
        <ele>410</ele>
        <time>2018-03-18T07:32:32Z</time>
      </trkpt>
      <trkpt lat="43.51491" lon="5.89377">
        <ele>410</ele>
        <time>2018-03-18T07:32:38Z</time>
      </trkpt>
      <trkpt lat="43.5151" lon="5.89372">
        <ele>409</ele>
        <time>2018-03-18T07:32:46Z</time>
      </trkpt>
      <trkpt lat="43.5153" lon="5.8937">
        <ele>410</ele>
        <time>2018-03-18T07:32:53Z</time>
      </trkpt>
      <trkpt lat="43.51545" lon="5.89355">
        <ele>410</ele>
        <time>2018-03-18T07:33:00Z</time>
      </trkpt>
      <trkpt lat="43.51563" lon="5.89346">
        <ele>410</ele>
        <time>2018-03-18T07:33:07Z</time>
      </trkpt>
      <trkpt lat="43.51582" lon="5.8934">
        <ele>411</ele>
        <time>2018-03-18T07:33:15Z</time>
      </trkpt>
      <trkpt lat="43.516" lon="5.8933">
        <ele>411</ele>
        <time>2018-03-18T07:33:23Z</time>
      </trkpt>
      <trkpt lat="43.51619" lon="5.89321">
        <ele>411</ele>
        <time>2018-03-18T07:33:31Z</time>
      </trkpt>
      <trkpt lat="43.51636" lon="5.89313">
        <ele>412</ele>
        <time>2018-03-18T07:33:39Z</time>
      </trkpt>
      <trkpt lat="43.51655" lon="5.89307">
        <ele>412</ele>
        <time>2018-03-18T07:33:48Z</time>
      </trkpt>
      <trkpt lat="43.51675" lon="5.89304">
        <ele>414</ele>
        <time>2018-03-18T07:33:57Z</time>
      </trkpt>
      <trkpt lat="43.51693" lon="5.89302">
        <ele>414</ele>
        <time>2018-03-18T07:34:06Z</time>
      </trkpt>
      <trkpt lat="43.51712" lon="5.89297">
        <ele>415</ele>
        <time>2018-03-18T07:34:15Z</time>
      </trkpt>
      <trkpt lat="43.51731" lon="5.89292">
        <ele>415</ele>
        <time>2018-03-18T07:34:24Z</time>
      </trkpt>
      <trkpt lat="43.5175" lon="5.89288">
        <ele>416</ele>
        <time>2018-03-18T07:34:33Z</time>
      </trkpt>
      <trkpt lat="43.51768" lon="5.89286">
        <ele>419</ele>
        <time>2018-03-18T07:34:42Z</time>
      </trkpt>
      <trkpt lat="43.51786" lon="5.89273">
        <ele>420</ele>
        <time>2018-03-18T07:34:52Z</time>
      </trkpt>
      <trkpt lat="43.51798" lon="5.89255">
        <ele>420</ele>
        <time>2018-03-18T07:35:00Z</time>
      </trkpt>
      <trkpt lat="43.51814" lon="5.89239">
        <ele>420</ele>
        <time>2018-03-18T07:35:09Z</time>
      </trkpt>
      <trkpt lat="43.51832" lon="5.89233">
        <ele>421</ele>
        <time>2018-03-18T07:35:20Z</time>
      </trkpt>
      <trkpt lat="43.51843" lon="5.89253">
        <ele>424</ele>
        <time>2018-03-18T07:35:32Z</time>
      </trkpt>
      <trkpt lat="43.5186" lon="5.89264">
        <ele>425</ele>
        <time>2018-03-18T07:35:43Z</time>
      </trkpt>
      <trkpt lat="43.51877" lon="5.89251">
        <ele>426</ele>
        <time>2018-03-18T07:35:54Z</time>
      </trkpt>
      <trkpt lat="43.51895" lon="5.89249">
        <ele>426</ele>
        <time>2018-03-18T07:36:05Z</time>
      </trkpt>
      <trkpt lat="43.51913" lon="5.89238">
        <ele>427</ele>
        <time>2018-03-18T07:36:16Z</time>
      </trkpt>
      <trkpt lat="43.51928" lon="5.89225">
        <ele>429</ele>
        <time>2018-03-18T07:36:25Z</time>
      </trkpt>
      <trkpt lat="43.51942" lon="5.89207">
        <ele>429</ele>
        <time>2018-03-18T07:36:34Z</time>
      </trkpt>
      <trkpt lat="43.5196" lon="5.89215">
        <ele>430</ele>
        <time>2018-03-18T07:36:46Z</time>
      </trkpt>
      <trkpt lat="43.51978" lon="5.89222">
        <ele>431</ele>
        <time>2018-03-18T07:36:57Z</time>
      </trkpt>
      <trkpt lat="43.51997" lon="5.89225">
        <ele>432</ele>
        <time>2018-03-18T07:37:08Z</time>
      </trkpt>
      <trkpt lat="43.52016" lon="5.89225">
        <ele>435</ele>
        <time>2018-03-18T07:37:18Z</time>
      </trkpt>
      <trkpt lat="43.52035" lon="5.8922">
        <ele>435</ele>
        <time>2018-03-18T07:37:28Z</time>
      </trkpt>
      <trkpt lat="43.52054" lon="5.89225">
        <ele>436</ele>
        <time>2018-03-18T07:37:38Z</time>
      </trkpt>
      <trkpt lat="43.52073" lon="5.89223">
        <ele>436</ele>
        <time>2018-03-18T07:37:48Z</time>
      </trkpt>
      <trkpt lat="43.52092" lon="5.89229">
        <ele>438</ele>
        <time>2018-03-18T07:37:58Z</time>
      </trkpt>
      <trkpt lat="43.52112" lon="5.89227">
        <ele>439</ele>
        <time>2018-03-18T07:38:10Z</time>
      </trkpt>
      <trkpt lat="43.52131" lon="5.89221">
        <ele>439</ele>
        <time>2018-03-18T07:38:20Z</time>
      </trkpt>
      <trkpt lat="43.52149" lon="5.89223">
        <ele>439</ele>
        <time>2018-03-18T07:38:29Z</time>
      </trkpt>
      <trkpt lat="43.52167" lon="5.8923">
        <ele>440</ele>
        <time>2018-03-18T07:38:38Z</time>
      </trkpt>
      <trkpt lat="43.52182" lon="5.89244">
        <ele>442</ele>
        <time>2018-03-18T07:38:47Z</time>
      </trkpt>
      <trkpt lat="43.522" lon="5.89255">
        <ele>441</ele>
        <time>2018-03-18T07:38:56Z</time>
      </trkpt>
      <trkpt lat="43.52218" lon="5.89253">
        <ele>441</ele>
        <time>2018-03-18T07:39:05Z</time>
      </trkpt>
      <trkpt lat="43.52237" lon="5.89251">
        <ele>442</ele>
        <time>2018-03-18T07:39:15Z</time>
      </trkpt>
      <trkpt lat="43.52257" lon="5.89248">
        <ele>442</ele>
        <time>2018-03-18T07:39:24Z</time>
      </trkpt>
      <trkpt lat="43.52275" lon="5.89237">
        <ele>441</ele>
        <time>2018-03-18T07:39:33Z</time>
      </trkpt>
      <trkpt lat="43.52295" lon="5.8924">
        <ele>441</ele>
        <time>2018-03-18T07:39:42Z</time>
      </trkpt>
      <trkpt lat="43.52313" lon="5.8924">
        <ele>441</ele>
        <time>2018-03-18T07:39:51Z</time>
      </trkpt>
      <trkpt lat="43.52332" lon="5.89245">
        <ele>442</ele>
        <time>2018-03-18T07:40:01Z</time>
      </trkpt>
      <trkpt lat="43.5235" lon="5.89249">
        <ele>442</ele>
        <time>2018-03-18T07:40:10Z</time>
      </trkpt>
      <trkpt lat="43.52369" lon="5.89248">
        <ele>443</ele>
        <time>2018-03-18T07:40:19Z</time>
      </trkpt>
      <trkpt lat="43.52387" lon="5.89248">
        <ele>443</ele>
        <time>2018-03-18T07:40:28Z</time>
      </trkpt>
      <trkpt lat="43.52406" lon="5.89251">
        <ele>444</ele>
        <time>2018-03-18T07:40:37Z</time>
      </trkpt>
      <trkpt lat="43.52423" lon="5.89242">
        <ele>446</ele>
        <time>2018-03-18T07:40:46Z</time>
      </trkpt>
      <trkpt lat="43.52441" lon="5.89234">
        <ele>445</ele>
        <time>2018-03-18T07:40:55Z</time>
      </trkpt>
      <trkpt lat="43.5246" lon="5.89231">
        <ele>445</ele>
        <time>2018-03-18T07:41:05Z</time>
      </trkpt>
      <trkpt lat="43.52476" lon="5.89216">
        <ele>445</ele>
        <time>2018-03-18T07:41:15Z</time>
      </trkpt>
      <trkpt lat="43.52486" lon="5.89196">
        <ele>445</ele>
        <time>2018-03-18T07:41:24Z</time>
      </trkpt>
      <trkpt lat="43.52502" lon="5.8918">
        <ele>446</ele>
        <time>2018-03-18T07:41:34Z</time>
      </trkpt>
      <trkpt lat="43.52521" lon="5.89173">
        <ele>447</ele>
        <time>2018-03-18T07:41:44Z</time>
      </trkpt>
      <trkpt lat="43.5254" lon="5.89171">
        <ele>448</ele>
        <time>2018-03-18T07:41:55Z</time>
      </trkpt>
      <trkpt lat="43.52557" lon="5.89179">
        <ele>449</ele>
        <time>2018-03-18T07:42:05Z</time>
      </trkpt>
      <trkpt lat="43.52574" lon="5.89169">
        <ele>450</ele>
        <time>2018-03-18T07:42:15Z</time>
      </trkpt>
      <trkpt lat="43.52591" lon="5.89158">
        <ele>451</ele>
        <time>2018-03-18T07:42:25Z</time>
      </trkpt>
      <trkpt lat="43.52603" lon="5.89138">
        <ele>452</ele>
        <time>2018-03-18T07:42:36Z</time>
      </trkpt>
      <trkpt lat="43.52617" lon="5.89123">
        <ele>452</ele>
        <time>2018-03-18T07:42:45Z</time>
      </trkpt>
      <trkpt lat="43.52631" lon="5.89105">
        <ele>452</ele>
        <time>2018-03-18T07:42:54Z</time>
      </trkpt>
      <trkpt lat="43.52647" lon="5.89094">
        <ele>454</ele>
        <time>2018-03-18T07:43:03Z</time>
      </trkpt>
      <trkpt lat="43.52665" lon="5.89082">
        <ele>455</ele>
        <time>2018-03-18T07:43:13Z</time>
      </trkpt>
      <trkpt lat="43.52684" lon="5.89078">
        <ele>456</ele>
        <time>2018-03-18T07:43:24Z</time>
      </trkpt>
      <trkpt lat="43.52702" lon="5.89075">
        <ele>456</ele>
        <time>2018-03-18T07:43:34Z</time>
      </trkpt>
      <trkpt lat="43.52721" lon="5.89066">
        <ele>457</ele>
        <time>2018-03-18T07:43:44Z</time>
      </trkpt>
      <trkpt lat="43.52736" lon="5.89051">
        <ele>457</ele>
        <time>2018-03-18T07:43:52Z</time>
      </trkpt>
      <trkpt lat="43.52749" lon="5.89034">
        <ele>457</ele>
        <time>2018-03-18T07:44:01Z</time>
      </trkpt>
      <trkpt lat="43.52753" lon="5.89008">
        <ele>457</ele>
        <time>2018-03-18T07:44:12Z</time>
      </trkpt>
      <trkpt lat="43.52761" lon="5.88982">
        <ele>456</ele>
        <time>2018-03-18T07:44:21Z</time>
      </trkpt>
      <trkpt lat="43.52769" lon="5.88958">
        <ele>455</ele>
        <time>2018-03-18T07:44:30Z</time>
      </trkpt>
      <trkpt lat="43.52778" lon="5.88935">
        <ele>455</ele>
        <time>2018-03-18T07:44:39Z</time>
      </trkpt>
      <trkpt lat="43.52791" lon="5.88914">
        <ele>453</ele>
        <time>2018-03-18T07:44:48Z</time>
      </trkpt>
      <trkpt lat="43.52799" lon="5.88891">
        <ele>452</ele>
        <time>2018-03-18T07:44:59Z</time>
      </trkpt>
      <trkpt lat="43.52805" lon="5.88867">
        <ele>452</ele>
        <time>2018-03-18T07:45:09Z</time>
      </trkpt>
      <trkpt lat="43.52812" lon="5.88843">
        <ele>451</ele>
        <time>2018-03-18T07:45:17Z</time>
      </trkpt>
      <trkpt lat="43.5281" lon="5.88816">
        <ele>450</ele>
        <time>2018-03-18T07:45:25Z</time>
      </trkpt>
      <trkpt lat="43.5282" lon="5.88796">
        <ele>450</ele>
        <time>2018-03-18T07:49:25Z</time>
      </trkpt>
      <trkpt lat="43.52839" lon="5.88789">
        <ele>447</ele>
        <time>2018-03-18T07:49:32Z</time>
      </trkpt>
      <trkpt lat="43.52857" lon="5.8878">
        <ele>447</ele>
        <time>2018-03-18T07:49:37Z</time>
      </trkpt>
      <trkpt lat="43.52876" lon="5.8877">
        <ele>446</ele>
        <time>2018-03-18T07:49:41Z</time>
      </trkpt>
      <trkpt lat="43.52899" lon="5.88764">
        <ele>444</ele>
        <time>2018-03-18T07:49:45Z</time>
      </trkpt>
      <trkpt lat="43.52917" lon="5.88763">
        <ele>443</ele>
        <time>2018-03-18T07:49:48Z</time>
      </trkpt>
      <trkpt lat="43.52935" lon="5.88759">
        <ele>441</ele>
        <time>2018-03-18T07:49:51Z</time>
      </trkpt>
      <trkpt lat="43.52957" lon="5.88757">
        <ele>440</ele>
        <time>2018-03-18T07:49:55Z</time>
      </trkpt>
      <trkpt lat="43.52974" lon="5.88767">
        <ele>440</ele>
        <time>2018-03-18T07:49:58Z</time>
      </trkpt>
      <trkpt lat="43.52993" lon="5.88771">
        <ele>439</ele>
        <time>2018-03-18T07:50:01Z</time>
      </trkpt>
      <trkpt lat="43.53016" lon="5.88772">
        <ele>436</ele>
        <time>2018-03-18T07:50:05Z</time>
      </trkpt>
      <trkpt lat="43.53035" lon="5.88768">
        <ele>436</ele>
        <time>2018-03-18T07:50:08Z</time>
      </trkpt>
      <trkpt lat="43.53056" lon="5.88764">
        <ele>435</ele>
        <time>2018-03-18T07:50:12Z</time>
      </trkpt>
      <trkpt lat="43.53078" lon="5.88771">
        <ele>434</ele>
        <time>2018-03-18T07:50:16Z</time>
      </trkpt>
      <trkpt lat="43.53097" lon="5.88769">
        <ele>430</ele>
        <time>2018-03-18T07:50:19Z</time>
      </trkpt>
      <trkpt lat="43.53116" lon="5.88761">
        <ele>429</ele>
        <time>2018-03-18T07:50:22Z</time>
      </trkpt>
      <trkpt lat="43.53138" lon="5.88757">
        <ele>427</ele>
        <time>2018-03-18T07:50:26Z</time>
      </trkpt>
      <trkpt lat="43.53156" lon="5.88759">
        <ele>425</ele>
        <time>2018-03-18T07:50:29Z</time>
      </trkpt>
      <trkpt lat="43.53176" lon="5.88765">
        <ele>421</ele>
        <time>2018-03-18T07:50:32Z</time>
      </trkpt>
      <trkpt lat="43.53196" lon="5.88766">
        <ele>420</ele>
        <time>2018-03-18T07:50:35Z</time>
      </trkpt>
      <trkpt lat="43.53214" lon="5.88768">
        <ele>419</ele>
        <time>2018-03-18T07:50:38Z</time>
      </trkpt>
      <trkpt lat="43.53236" lon="5.88759">
        <ele>416</ele>
        <time>2018-03-18T07:50:42Z</time>
      </trkpt>
      <trkpt lat="43.53254" lon="5.88742">
        <ele>411</ele>
        <time>2018-03-18T07:50:46Z</time>
      </trkpt>
      <trkpt lat="43.53272" lon="5.88727">
        <ele>412</ele>
        <time>2018-03-18T07:50:51Z</time>
      </trkpt>
      <trkpt lat="43.53278" lon="5.88703">
        <ele>412</ele>
        <time>2018-03-18T07:50:55Z</time>
      </trkpt>
      <trkpt lat="43.53283" lon="5.88676">
        <ele>413</ele>
        <time>2018-03-18T07:50:59Z</time>
      </trkpt>
      <trkpt lat="43.533" lon="5.88663">
        <ele>418</ele>
        <time>2018-03-18T07:51:04Z</time>
      </trkpt>
      <trkpt lat="43.53318" lon="5.88675">
        <ele>414</ele>
        <time>2018-03-18T07:51:10Z</time>
      </trkpt>
      <trkpt lat="43.53334" lon="5.88686">
        <ele>415</ele>
        <time>2018-03-18T07:51:15Z</time>
      </trkpt>
      <trkpt lat="43.53353" lon="5.88695">
        <ele>415</ele>
        <time>2018-03-18T07:51:21Z</time>
      </trkpt>
      <trkpt lat="43.53372" lon="5.88701">
        <ele>415</ele>
        <time>2018-03-18T07:51:27Z</time>
      </trkpt>
      <trkpt lat="43.5339" lon="5.88709">
        <ele>415</ele>
        <time>2018-03-18T07:51:34Z</time>
      </trkpt>
      <trkpt lat="43.53407" lon="5.88719">
        <ele>415</ele>
        <time>2018-03-18T07:51:41Z</time>
      </trkpt>
      <trkpt lat="43.53424" lon="5.88726">
        <ele>416</ele>
        <time>2018-03-18T07:51:49Z</time>
      </trkpt>
      <trkpt lat="43.53442" lon="5.88733">
        <ele>416</ele>
        <time>2018-03-18T07:51:58Z</time>
      </trkpt>
      <trkpt lat="43.53461" lon="5.8873">
        <ele>417</ele>
        <time>2018-03-18T07:52:07Z</time>
      </trkpt>
      <trkpt lat="43.53475" lon="5.88712">
        <ele>418</ele>
        <time>2018-03-18T07:52:18Z</time>
      </trkpt>
      <trkpt lat="43.53484" lon="5.8869">
        <ele>419</ele>
        <time>2018-03-18T07:52:28Z</time>
      </trkpt>
      <trkpt lat="43.53497" lon="5.8867">
        <ele>421</ele>
        <time>2018-03-18T07:52:36Z</time>
      </trkpt>
      <trkpt lat="43.53508" lon="5.88648">
        <ele>421</ele>
        <time>2018-03-18T07:52:45Z</time>
      </trkpt>
      <trkpt lat="43.53517" lon="5.88626">
        <ele>421</ele>
        <time>2018-03-18T07:52:54Z</time>
      </trkpt>
      <trkpt lat="43.53525" lon="5.88603">
        <ele>422</ele>
        <time>2018-03-18T07:53:02Z</time>
      </trkpt>
      <trkpt lat="43.53526" lon="5.88577">
        <ele>427</ele>
        <time>2018-03-18T07:53:11Z</time>
      </trkpt>
      <trkpt lat="43.53527" lon="5.88552">
        <ele>428</ele>
        <time>2018-03-18T07:53:20Z</time>
      </trkpt>
      <trkpt lat="43.53531" lon="5.88525">
        <ele>429</ele>
        <time>2018-03-18T07:53:29Z</time>
      </trkpt>
      <trkpt lat="43.53529" lon="5.88498">
        <ele>434</ele>
        <time>2018-03-18T07:53:39Z</time>
      </trkpt>
      <trkpt lat="43.53524" lon="5.88474">
        <ele>434</ele>
        <time>2018-03-18T07:53:48Z</time>
      </trkpt>
      <trkpt lat="43.53518" lon="5.8845">
        <ele>435</ele>
        <time>2018-03-18T07:53:58Z</time>
      </trkpt>
      <trkpt lat="43.53517" lon="5.88423">
        <ele>435</ele>
        <time>2018-03-18T07:54:08Z</time>
      </trkpt>
      <trkpt lat="43.53535" lon="5.88428">
        <ele>435</ele>
        <time>2018-03-18T07:54:21Z</time>
      </trkpt>
      <trkpt lat="43.53555" lon="5.88431">
        <ele>435</ele>
        <time>2018-03-18T07:54:32Z</time>
      </trkpt>
      <trkpt lat="43.53575" lon="5.8843">
        <ele>436</ele>
        <time>2018-03-18T07:54:43Z</time>
      </trkpt>
      <trkpt lat="43.53588" lon="5.88448">
        <ele>435</ele>
        <time>2018-03-18T07:54:51Z</time>
      </trkpt>
      <trkpt lat="43.53594" lon="5.88472">
        <ele>433</ele>
        <time>2018-03-18T07:55:00Z</time>
      </trkpt>
      <trkpt lat="43.53608" lon="5.88489">
        <ele>433</ele>
        <time>2018-03-18T07:55:10Z</time>
      </trkpt>
      <trkpt lat="43.53627" lon="5.88487">
        <ele>434</ele>
        <time>2018-03-18T07:55:19Z</time>
      </trkpt>
      <trkpt lat="43.53643" lon="5.88473">
        <ele>434</ele>
        <time>2018-03-18T07:55:29Z</time>
      </trkpt>
      <trkpt lat="43.53657" lon="5.88453">
        <ele>436</ele>
        <time>2018-03-18T07:55:38Z</time>
      </trkpt>
      <trkpt lat="43.53671" lon="5.88434">
        <ele>435</ele>
        <time>2018-03-18T07:55:47Z</time>
      </trkpt>
      <trkpt lat="43.53682" lon="5.88413">
        <ele>440</ele>
        <time>2018-03-18T07:55:56Z</time>
      </trkpt>
      <trkpt lat="43.53688" lon="5.88389">
        <ele>440</ele>
        <time>2018-03-18T07:56:06Z</time>
      </trkpt>
      <trkpt lat="43.53697" lon="5.88366">
        <ele>441</ele>
        <time>2018-03-18T07:56:17Z</time>
      </trkpt>
      <trkpt lat="43.53706" lon="5.88342">
        <ele>442</ele>
        <time>2018-03-18T07:56:27Z</time>
      </trkpt>
      <trkpt lat="43.53717" lon="5.88319">
        <ele>447</ele>
        <time>2018-03-18T07:56:36Z</time>
      </trkpt>
      <trkpt lat="43.53728" lon="5.88297">
        <ele>448</ele>
        <time>2018-03-18T07:56:45Z</time>
      </trkpt>
      <trkpt lat="43.53739" lon="5.88275">
        <ele>448</ele>
        <time>2018-03-18T07:56:55Z</time>
      </trkpt>
      <trkpt lat="43.53749" lon="5.88253">
        <ele>448</ele>
        <time>2018-03-18T07:57:04Z</time>
      </trkpt>
      <trkpt lat="43.53758" lon="5.88229">
        <ele>448</ele>
        <time>2018-03-18T07:57:13Z</time>
      </trkpt>
      <trkpt lat="43.53764" lon="5.88205">
        <ele>449</ele>
        <time>2018-03-18T07:57:22Z</time>
      </trkpt>
      <trkpt lat="43.53769" lon="5.88181">
        <ele>451</ele>
        <time>2018-03-18T07:57:31Z</time>
      </trkpt>
      <trkpt lat="43.53773" lon="5.88156">
        <ele>456</ele>
        <time>2018-03-18T07:57:39Z</time>
      </trkpt>
      <trkpt lat="43.53775" lon="5.88129">
        <ele>457</ele>
        <time>2018-03-18T07:57:49Z</time>
      </trkpt>
      <trkpt lat="43.53774" lon="5.88102">
        <ele>459</ele>
        <time>2018-03-18T07:57:59Z</time>
      </trkpt>
      <trkpt lat="43.53774" lon="5.88076">
        <ele>464</ele>
        <time>2018-03-18T07:58:09Z</time>
      </trkpt>
      <trkpt lat="43.53775" lon="5.8805">
        <ele>464</ele>
        <time>2018-03-18T07:58:19Z</time>
      </trkpt>
      <trkpt lat="43.5378" lon="5.88025">
        <ele>465</ele>
        <time>2018-03-18T07:58:29Z</time>
      </trkpt>
      <trkpt lat="43.53784" lon="5.88">
        <ele>467</ele>
        <time>2018-03-18T07:58:39Z</time>
      </trkpt>
      <trkpt lat="43.53787" lon="5.87973">
        <ele>468</ele>
        <time>2018-03-18T07:58:48Z</time>
      </trkpt>
      <trkpt lat="43.53786" lon="5.87946">
        <ele>468</ele>
        <time>2018-03-18T07:58:58Z</time>
      </trkpt>
      <trkpt lat="43.53784" lon="5.87919">
        <ele>469</ele>
        <time>2018-03-18T07:59:08Z</time>
      </trkpt>
      <trkpt lat="43.53786" lon="5.87893">
        <ele>472</ele>
        <time>2018-03-18T07:59:18Z</time>
      </trkpt>
      <trkpt lat="43.5379" lon="5.87867">
        <ele>472</ele>
        <time>2018-03-18T07:59:28Z</time>
      </trkpt>
      <trkpt lat="43.53794" lon="5.87842">
        <ele>472</ele>
        <time>2018-03-18T07:59:38Z</time>
      </trkpt>
      <trkpt lat="43.53795" lon="5.87818">
        <ele>476</ele>
        <time>2018-03-18T07:59:47Z</time>
      </trkpt>
      <trkpt lat="43.53789" lon="5.87793">
        <ele>478</ele>
        <time>2018-03-18T07:59:57Z</time>
      </trkpt>
      <trkpt lat="43.53785" lon="5.87769">
        <ele>479</ele>
        <time>2018-03-18T08:00:06Z</time>
      </trkpt>
      <trkpt lat="43.5379" lon="5.87744">
        <ele>482</ele>
        <time>2018-03-18T08:00:16Z</time>
      </trkpt>
      <trkpt lat="43.53785" lon="5.87719">
        <ele>483</ele>
        <time>2018-03-18T08:00:26Z</time>
      </trkpt>
      <trkpt lat="43.53785" lon="5.87693">
        <ele>484</ele>
        <time>2018-03-18T08:00:36Z</time>
      </trkpt>
      <trkpt lat="43.53785" lon="5.87668">
        <ele>484</ele>
        <time>2018-03-18T08:00:45Z</time>
      </trkpt>
      <trkpt lat="43.53773" lon="5.87646">
        <ele>487</ele>
        <time>2018-03-18T08:00:54Z</time>
      </trkpt>
      <trkpt lat="43.53762" lon="5.87624">
        <ele>488</ele>
        <time>2018-03-18T08:01:03Z</time>
      </trkpt>
      <trkpt lat="43.53771" lon="5.876">
        <ele>489</ele>
        <time>2018-03-18T08:01:12Z</time>
      </trkpt>
      <trkpt lat="43.53789" lon="5.87595">
        <ele>487</ele>
        <time>2018-03-18T08:01:22Z</time>
      </trkpt>
      <trkpt lat="43.53805" lon="5.87579">
        <ele>491</ele>
        <time>2018-03-18T08:01:32Z</time>
      </trkpt>
      <trkpt lat="43.53817" lon="5.87558">
        <ele>492</ele>
        <time>2018-03-18T08:01:41Z</time>
      </trkpt>
      <trkpt lat="43.53833" lon="5.87542">
        <ele>493</ele>
        <time>2018-03-18T08:01:50Z</time>
      </trkpt>
      <trkpt lat="43.53848" lon="5.87527">
        <ele>491</ele>
        <time>2018-03-18T08:02:01Z</time>
      </trkpt>
      <trkpt lat="43.53865" lon="5.87516">
        <ele>490</ele>
        <time>2018-03-18T08:02:12Z</time>
      </trkpt>
      <trkpt lat="43.53873" lon="5.87492">
        <ele>495</ele>
        <time>2018-03-18T08:02:23Z</time>
      </trkpt>
      <trkpt lat="43.53884" lon="5.8747">
        <ele>495</ele>
        <time>2018-03-18T08:02:33Z</time>
      </trkpt>
      <trkpt lat="43.53903" lon="5.87463">
        <ele>495</ele>
        <time>2018-03-18T08:02:42Z</time>
      </trkpt>
      <trkpt lat="43.5392" lon="5.87453">
        <ele>495</ele>
        <time>2018-03-18T08:02:51Z</time>
      </trkpt>
      <trkpt lat="43.53932" lon="5.87432">
        <ele>496</ele>
        <time>2018-03-18T08:03:00Z</time>
      </trkpt>
      <trkpt lat="43.53943" lon="5.87412">
        <ele>498</ele>
        <time>2018-03-18T08:03:11Z</time>
      </trkpt>
      <trkpt lat="43.53954" lon="5.87391">
        <ele>499</ele>
        <time>2018-03-18T08:03:20Z</time>
      </trkpt>
      <trkpt lat="43.53964" lon="5.87368">
        <ele>499</ele>
        <time>2018-03-18T08:03:30Z</time>
      </trkpt>
      <trkpt lat="43.53969" lon="5.87342">
        <ele>500</ele>
        <time>2018-03-18T08:03:41Z</time>
      </trkpt>
      <trkpt lat="43.53981" lon="5.87322">
        <ele>502</ele>
        <time>2018-03-18T08:03:52Z</time>
      </trkpt>
      <trkpt lat="43.53995" lon="5.87305">
        <ele>502</ele>
        <time>2018-03-18T08:07:35Z</time>
      </trkpt>
      <trkpt lat="43.54013" lon="5.87317">
        <ele>502</ele>
        <time>2018-03-18T08:07:46Z</time>
      </trkpt>
      <trkpt lat="43.54031" lon="5.87327">
        <ele>502</ele>
        <time>2018-03-18T08:07:54Z</time>
      </trkpt>
      <trkpt lat="43.54048" lon="5.87338">
        <ele>502</ele>
        <time>2018-03-18T08:08:01Z</time>
      </trkpt>
      <trkpt lat="43.54063" lon="5.87355">
        <ele>502</ele>
        <time>2018-03-18T08:08:08Z</time>
      </trkpt>
      <trkpt lat="43.54079" lon="5.8737">
        <ele>502</ele>
        <time>2018-03-18T08:08:16Z</time>
      </trkpt>
      <trkpt lat="43.54096" lon="5.87382">
        <ele>505</ele>
        <time>2018-03-18T08:08:24Z</time>
      </trkpt>
      <trkpt lat="43.54103" lon="5.87407">
        <ele>505</ele>
        <time>2018-03-18T08:08:34Z</time>
      </trkpt>
      <trkpt lat="43.54094" lon="5.8743">
        <ele>505</ele>
        <time>2018-03-18T08:08:42Z</time>
      </trkpt>
      <trkpt lat="43.54091" lon="5.87457">
        <ele>506</ele>
        <time>2018-03-18T08:08:50Z</time>
      </trkpt>
      <trkpt lat="43.54089" lon="5.87484">
        <ele>507</ele>
        <time>2018-03-18T08:08:59Z</time>
      </trkpt>
      <trkpt lat="43.54087" lon="5.87511">
        <ele>508</ele>
        <time>2018-03-18T08:09:08Z</time>
      </trkpt>
      <trkpt lat="43.54083" lon="5.87537">
        <ele>506</ele>
        <time>2018-03-18T08:09:16Z</time>
      </trkpt>
      <trkpt lat="43.54077" lon="5.8756">
        <ele>506</ele>
        <time>2018-03-18T08:09:24Z</time>
      </trkpt>
      <trkpt lat="43.54068" lon="5.87583">
        <ele>506</ele>
        <time>2018-03-18T08:09:32Z</time>
      </trkpt>
      <trkpt lat="43.54068" lon="5.87609">
        <ele>506</ele>
        <time>2018-03-18T08:09:40Z</time>
      </trkpt>
      <trkpt lat="43.5407" lon="5.87634">
        <ele>506</ele>
        <time>2018-03-18T08:09:49Z</time>
      </trkpt>
      <trkpt lat="43.54086" lon="5.87648">
        <ele>508</ele>
        <time>2018-03-18T08:09:57Z</time>
      </trkpt>
      <trkpt lat="43.54085" lon="5.87673">
        <ele>507</ele>
        <time>2018-03-18T08:10:04Z</time>
      </trkpt>
      <trkpt lat="43.54084" lon="5.87701">
        <ele>508</ele>
        <time>2018-03-18T08:10:11Z</time>
      </trkpt>
      <trkpt lat="43.54086" lon="5.87729">
        <ele>508</ele>
        <time>2018-03-18T08:10:18Z</time>
      </trkpt>
      <trkpt lat="43.54086" lon="5.87754">
        <ele>508</ele>
        <time>2018-03-18T08:10:24Z</time>
      </trkpt>
      <trkpt lat="43.54105" lon="5.87762">
        <ele>508</ele>
        <time>2018-03-18T08:10:34Z</time>
      </trkpt>
      <trkpt lat="43.54125" lon="5.87756">
        <ele>508</ele>
        <time>2018-03-18T08:10:41Z</time>
      </trkpt>
      <trkpt lat="43.54143" lon="5.87746">
        <ele>509</ele>
        <time>2018-03-18T08:10:48Z</time>
      </trkpt>
      <trkpt lat="43.54162" lon="5.87742">
        <ele>509</ele>
        <time>2018-03-18T08:10:54Z</time>
      </trkpt>
      <trkpt lat="43.54177" lon="5.87726">
        <ele>509</ele>
        <time>2018-03-18T08:11:00Z</time>
      </trkpt>
      <trkpt lat="43.54194" lon="5.87712">
        <ele>509</ele>
        <time>2018-03-18T08:11:06Z</time>
      </trkpt>
      <trkpt lat="43.54211" lon="5.877">
        <ele>509</ele>
        <time>2018-03-18T08:11:13Z</time>
      </trkpt>
      <trkpt lat="43.54228" lon="5.87692">
        <ele>509</ele>
        <time>2018-03-18T08:11:44Z</time>
      </trkpt>
      <trkpt lat="43.54247" lon="5.87693">
        <ele>509</ele>
      </trkpt>
      <trkpt lat="43.54254" lon="5.87705">
        <ele>507</ele>
      </trkpt>
      <trkpt lat="43.5426" lon="5.87715">
        <ele>506</ele>
      </trkpt>
      <trkpt lat="43.54269" lon="5.87721">
        <ele>506</ele>
        <time>2018-03-18T08:13:39Z</time>
      </trkpt>
      <trkpt lat="43.54287" lon="5.8771">
        <ele>505</ele>
        <time>2018-03-18T08:13:45Z</time>
      </trkpt>
      <trkpt lat="43.54304" lon="5.87693">
        <ele>504</ele>
        <time>2018-03-18T08:13:50Z</time>
      </trkpt>
      <trkpt lat="43.5432" lon="5.87673">
        <ele>504</ele>
        <time>2018-03-18T08:13:55Z</time>
      </trkpt>
      <trkpt lat="43.54331" lon="5.87652">
        <ele>504</ele>
        <time>2018-03-18T08:13:59Z</time>
      </trkpt>
      <trkpt lat="43.54343" lon="5.87631">
        <ele>500</ele>
        <time>2018-03-18T08:14:03Z</time>
      </trkpt>
      <trkpt lat="43.54349" lon="5.87607">
        <ele>501</ele>
        <time>2018-03-18T08:14:07Z</time>
      </trkpt>
      <trkpt lat="43.54367" lon="5.87595">
        <ele>499</ele>
        <time>2018-03-18T08:14:12Z</time>
      </trkpt>
      <trkpt lat="43.54382" lon="5.87573">
        <ele>499</ele>
        <time>2018-03-18T08:14:17Z</time>
      </trkpt>
      <trkpt lat="43.54398" lon="5.87559">
        <ele>498</ele>
        <time>2018-03-18T08:14:21Z</time>
      </trkpt>
      <trkpt lat="43.54412" lon="5.87537">
        <ele>498</ele>
        <time>2018-03-18T08:14:26Z</time>
      </trkpt>
      <trkpt lat="43.54415" lon="5.87508">
        <ele>498</ele>
        <time>2018-03-18T08:14:31Z</time>
      </trkpt>
      <trkpt lat="43.54423" lon="5.8748">
        <ele>494</ele>
        <time>2018-03-18T08:14:35Z</time>
      </trkpt>
      <trkpt lat="43.54428" lon="5.8745">
        <ele>492</ele>
        <time>2018-03-18T08:14:39Z</time>
      </trkpt>
      <trkpt lat="43.54433" lon="5.87424">
        <ele>492</ele>
        <time>2018-03-18T08:14:42Z</time>
      </trkpt>
      <trkpt lat="43.54443" lon="5.87397">
        <ele>489</ele>
        <time>2018-03-18T08:14:45Z</time>
      </trkpt>
      <trkpt lat="43.54456" lon="5.8737">
        <ele>488</ele>
        <time>2018-03-18T08:14:48Z</time>
      </trkpt>
      <trkpt lat="43.54468" lon="5.87345">
        <ele>487</ele>
        <time>2018-03-18T08:14:51Z</time>
      </trkpt>
      <trkpt lat="43.54481" lon="5.87322">
        <ele>486</ele>
        <time>2018-03-18T08:14:54Z</time>
      </trkpt>
      <trkpt lat="43.54501" lon="5.87309">
        <ele>483</ele>
        <time>2018-03-18T08:14:58Z</time>
      </trkpt>
      <trkpt lat="43.54522" lon="5.87306">
        <ele>483</ele>
        <time>2018-03-18T08:15:02Z</time>
      </trkpt>
      <trkpt lat="43.54542" lon="5.87298">
        <ele>482</ele>
        <time>2018-03-18T08:15:07Z</time>
      </trkpt>
      <trkpt lat="43.54563" lon="5.87286">
        <ele>482</ele>
        <time>2018-03-18T08:15:12Z</time>
      </trkpt>
      <trkpt lat="43.5458" lon="5.87277">
        <ele>481</ele>
        <time>2018-03-18T08:15:16Z</time>
      </trkpt>
      <trkpt lat="43.546" lon="5.87264">
        <ele>478</ele>
        <time>2018-03-18T08:15:21Z</time>
      </trkpt>
      <trkpt lat="43.54616" lon="5.87246">
        <ele>478</ele>
        <time>2018-03-18T08:15:26Z</time>
      </trkpt>
      <trkpt lat="43.54625" lon="5.87224">
        <ele>478</ele>
        <time>2018-03-18T08:15:32Z</time>
      </trkpt>
      <trkpt lat="43.54633" lon="5.872">
        <ele>478</ele>
        <time>2018-03-18T08:15:40Z</time>
      </trkpt>
      <trkpt lat="43.54641" lon="5.87175">
        <ele>478</ele>
        <time>2018-03-18T08:15:47Z</time>
      </trkpt>
      <trkpt lat="43.54646" lon="5.87148">
        <ele>481</ele>
        <time>2018-03-18T08:15:54Z</time>
      </trkpt>
      <trkpt lat="43.54634" lon="5.87127">
        <ele>482</ele>
        <time>2018-03-18T08:16:01Z</time>
      </trkpt>
      <trkpt lat="43.5462" lon="5.87107">
        <ele>483</ele>
        <time>2018-03-18T08:16:09Z</time>
      </trkpt>
      <trkpt lat="43.54613" lon="5.87083">
        <ele>488</ele>
        <time>2018-03-18T08:16:25Z</time>
      </trkpt>
      <trkpt lat="43.54631" lon="5.87072">
        <ele>487</ele>
        <time>2018-03-18T08:16:41Z</time>
      </trkpt>
      <trkpt lat="43.54648" lon="5.87061">
        <ele>487</ele>
        <time>2018-03-18T08:16:50Z</time>
      </trkpt>
      <trkpt lat="43.54664" lon="5.87047">
        <ele>487</ele>
        <time>2018-03-18T08:17:00Z</time>
      </trkpt>
      <trkpt lat="43.54681" lon="5.87036">
        <ele>486</ele>
        <time>2018-03-18T08:17:10Z</time>
      </trkpt>
      <trkpt lat="43.54697" lon="5.87023">
        <ele>486</ele>
        <time>2018-03-18T08:17:19Z</time>
      </trkpt>
      <trkpt lat="43.54713" lon="5.87012">
        <ele>486</ele>
        <time>2018-03-18T08:17:27Z</time>
      </trkpt>
      <trkpt lat="43.5473" lon="5.86996">
        <ele>489</ele>
        <time>2018-03-18T08:17:36Z</time>
      </trkpt>
      <trkpt lat="43.54744" lon="5.86978">
        <ele>490</ele>
        <time>2018-03-18T08:17:45Z</time>
      </trkpt>
      <trkpt lat="43.54756" lon="5.86959">
        <ele>487</ele>
        <time>2018-03-18T08:17:53Z</time>
      </trkpt>
      <trkpt lat="43.5477" lon="5.86939">
        <ele>488</ele>
        <time>2018-03-18T08:18:01Z</time>
      </trkpt>
      <trkpt lat="43.5478" lon="5.86917">
        <ele>490</ele>
        <time>2018-03-18T08:18:09Z</time>
      </trkpt>
      <trkpt lat="43.54792" lon="5.86896">
        <ele>489</ele>
        <time>2018-03-18T08:18:16Z</time>
      </trkpt>
      <trkpt lat="43.54802" lon="5.86874">
        <ele>489</ele>
        <time>2018-03-18T08:18:23Z</time>
      </trkpt>
      <trkpt lat="43.54812" lon="5.86848">
        <ele>489</ele>
        <time>2018-03-18T08:18:30Z</time>
      </trkpt>
      <trkpt lat="43.5482" lon="5.86825">
        <ele>488</ele>
        <time>2018-03-18T08:18:36Z</time>
      </trkpt>
      <trkpt lat="43.5482" lon="5.86797">
        <ele>488</ele>
        <time>2018-03-18T08:18:44Z</time>
      </trkpt>
      <trkpt lat="43.54819" lon="5.86769">
        <ele>486</ele>
        <time>2018-03-18T08:18:52Z</time>
      </trkpt>
      <trkpt lat="43.54819" lon="5.86739">
        <ele>485</ele>
        <time>2018-03-18T08:18:58Z</time>
      </trkpt>
      <trkpt lat="43.54827" lon="5.86713">
        <ele>486</ele>
        <time>2018-03-18T08:19:02Z</time>
      </trkpt>
      <trkpt lat="43.54836" lon="5.86687">
        <ele>479</ele>
        <time>2018-03-18T08:19:06Z</time>
      </trkpt>
      <trkpt lat="43.54838" lon="5.86662">
        <ele>481</ele>
        <time>2018-03-18T08:19:11Z</time>
      </trkpt>
      <trkpt lat="43.54842" lon="5.86636">
        <ele>482</ele>
        <time>2018-03-18T08:19:17Z</time>
      </trkpt>
      <trkpt lat="43.5485" lon="5.86611">
        <ele>483</ele>
        <time>2018-03-18T08:19:25Z</time>
      </trkpt>
      <trkpt lat="43.54869" lon="5.86606">
        <ele>483</ele>
        <time>2018-03-18T08:19:33Z</time>
      </trkpt>
      <trkpt lat="43.54886" lon="5.86618">
        <ele>483</ele>
        <time>2018-03-18T08:19:44Z</time>
      </trkpt>
      <trkpt lat="43.54903" lon="5.86631">
        <ele>483</ele>
        <time>2018-03-18T08:19:54Z</time>
      </trkpt>
      <trkpt lat="43.5492" lon="5.86639">
        <ele>483</ele>
        <time>2018-03-18T08:20:04Z</time>
      </trkpt>
      <trkpt lat="43.54938" lon="5.86649">
        <ele>483</ele>
        <time>2018-03-18T08:20:16Z</time>
      </trkpt>
      <trkpt lat="43.54953" lon="5.86666">
        <ele>483</ele>
      </trkpt>
      <trkpt lat="43.54973" lon="5.86664">
        <ele>483</ele>
        <time>2018-03-18T08:23:33Z</time>
      </trkpt>
      <trkpt lat="43.54989" lon="5.86653">
        <ele>483</ele>
        <time>2018-03-18T08:23:40Z</time>
      </trkpt>
      <trkpt lat="43.55006" lon="5.86637">
        <ele>483</ele>
        <time>2018-03-18T08:23:47Z</time>
      </trkpt>
      <trkpt lat="43.55022" lon="5.86625">
        <ele>484</ele>
        <time>2018-03-18T08:23:53Z</time>
      </trkpt>
      <trkpt lat="43.55038" lon="5.86609">
        <ele>484</ele>
        <time>2018-03-18T08:23:59Z</time>
      </trkpt>
      <trkpt lat="43.55052" lon="5.86591">
        <ele>483</ele>
        <time>2018-03-18T08:24:05Z</time>
      </trkpt>
      <trkpt lat="43.55067" lon="5.86575">
        <ele>485</ele>
        <time>2018-03-18T08:24:11Z</time>
      </trkpt>
      <trkpt lat="43.55082" lon="5.8656">
        <ele>485</ele>
        <time>2018-03-18T08:24:17Z</time>
      </trkpt>
      <trkpt lat="43.55091" lon="5.86536">
        <ele>481</ele>
        <time>2018-03-18T08:24:24Z</time>
      </trkpt>
      <trkpt lat="43.55105" lon="5.86519">
        <ele>481</ele>
        <time>2018-03-18T08:24:30Z</time>
      </trkpt>
      <trkpt lat="43.55117" lon="5.86499">
        <ele>483</ele>
        <time>2018-03-18T08:24:35Z</time>
      </trkpt>
      <trkpt lat="43.55128" lon="5.86475">
        <ele>483</ele>
        <time>2018-03-18T08:24:40Z</time>
      </trkpt>
      <trkpt lat="43.55143" lon="5.86456">
        <ele>483</ele>
        <time>2018-03-18T08:24:45Z</time>
      </trkpt>
      <trkpt lat="43.55156" lon="5.86438">
        <ele>484</ele>
        <time>2018-03-18T08:24:50Z</time>
      </trkpt>
      <trkpt lat="43.5517" lon="5.86418">
        <ele>483</ele>
        <time>2018-03-18T08:24:56Z</time>
      </trkpt>
      <trkpt lat="43.55181" lon="5.86397">
        <ele>484</ele>
        <time>2018-03-18T08:25:02Z</time>
      </trkpt>
      <trkpt lat="43.55187" lon="5.86373">
        <ele>485</ele>
        <time>2018-03-18T08:25:08Z</time>
      </trkpt>
      <trkpt lat="43.55194" lon="5.86349">
        <ele>486</ele>
        <time>2018-03-18T08:25:14Z</time>
      </trkpt>
      <trkpt lat="43.55209" lon="5.86333">
        <ele>491</ele>
        <time>2018-03-18T08:25:20Z</time>
      </trkpt>
      <trkpt lat="43.55229" lon="5.86334">
        <ele>485</ele>
        <time>2018-03-18T08:25:27Z</time>
      </trkpt>
      <trkpt lat="43.55247" lon="5.86327">
        <ele>487</ele>
        <time>2018-03-18T08:25:36Z</time>
      </trkpt>
      <trkpt lat="43.55265" lon="5.8632">
        <ele>487</ele>
        <time>2018-03-18T08:25:46Z</time>
      </trkpt>
      <trkpt lat="43.55286" lon="5.86321">
        <ele>487</ele>
        <time>2018-03-18T08:25:54Z</time>
      </trkpt>
      <trkpt lat="43.55308" lon="5.86327">
        <ele>486</ele>
        <time>2018-03-18T08:25:59Z</time>
      </trkpt>
      <trkpt lat="43.55326" lon="5.86325">
        <ele>484</ele>
        <time>2018-03-18T08:26:03Z</time>
      </trkpt>
      <trkpt lat="43.55344" lon="5.86334">
        <ele>481</ele>
        <time>2018-03-18T08:26:09Z</time>
      </trkpt>
      <trkpt lat="43.55356" lon="5.86356">
        <ele>480</ele>
        <time>2018-03-18T08:26:14Z</time>
      </trkpt>
      <trkpt lat="43.55371" lon="5.86377">
        <ele>480</ele>
        <time>2018-03-18T08:26:20Z</time>
      </trkpt>
      <trkpt lat="43.55382" lon="5.86399">
        <ele>479</ele>
        <time>2018-03-18T08:26:25Z</time>
      </trkpt>
      <trkpt lat="43.55393" lon="5.86424">
        <ele>477</ele>
        <time>2018-03-18T08:26:30Z</time>
      </trkpt>
      <trkpt lat="43.55405" lon="5.86447">
        <ele>477</ele>
        <time>2018-03-18T08:26:35Z</time>
      </trkpt>
      <trkpt lat="43.55421" lon="5.86465">
        <ele>476</ele>
        <time>2018-03-18T08:26:40Z</time>
      </trkpt>
      <trkpt lat="43.55433" lon="5.86487">
        <ele>476</ele>
        <time>2018-03-18T08:26:45Z</time>
      </trkpt>
      <trkpt lat="43.55441" lon="5.86512">
        <ele>476</ele>
        <time>2018-03-18T08:26:50Z</time>
      </trkpt>
      <trkpt lat="43.55444" lon="5.86538">
        <ele>476</ele>
        <time>2018-03-18T08:26:55Z</time>
      </trkpt>
      <trkpt lat="43.55458" lon="5.86555">
        <ele>476</ele>
        <time>2018-03-18T08:27:02Z</time>
      </trkpt>
      <trkpt lat="43.55477" lon="5.86564">
        <ele>476</ele>
        <time>2018-03-18T08:30:26Z</time>
      </trkpt>
      <trkpt lat="43.55494" lon="5.86559">
        <ele>476</ele>
        <time>2018-03-18T08:30:37Z</time>
      </trkpt>
      <trkpt lat="43.55511" lon="5.86568">
        <ele>477</ele>
        <time>2018-03-18T08:30:47Z</time>
      </trkpt>
      <trkpt lat="43.55527" lon="5.86584">
        <ele>479</ele>
        <time>2018-03-18T08:30:58Z</time>
      </trkpt>
      <trkpt lat="43.55544" lon="5.86595">
        <ele>479</ele>
        <time>2018-03-18T08:31:09Z</time>
      </trkpt>
      <trkpt lat="43.55554" lon="5.86616">
        <ele>479</ele>
        <time>2018-03-18T08:31:23Z</time>
      </trkpt>
      <trkpt lat="43.55537" lon="5.86627">
        <ele>479</ele>
        <time>2018-03-18T08:31:34Z</time>
      </trkpt>
      <trkpt lat="43.55523" lon="5.86646">
        <ele>479</ele>
        <time>2018-03-18T08:31:47Z</time>
      </trkpt>
      <trkpt lat="43.55534" lon="5.86666">
        <ele>479</ele>
        <time>2018-03-18T08:32:07Z</time>
      </trkpt>
      <trkpt lat="43.55548" lon="5.86684">
        <ele>477</ele>
        <time>2018-03-18T08:32:18Z</time>
      </trkpt>
      <trkpt lat="43.55563" lon="5.86697">
        <ele>477</ele>
        <time>2018-03-18T08:32:26Z</time>
      </trkpt>
      <trkpt lat="43.55579" lon="5.86713">
        <ele>476</ele>
        <time>2018-03-18T08:32:34Z</time>
      </trkpt>
      <trkpt lat="43.55595" lon="5.86729">
        <ele>472</ele>
        <time>2018-03-18T08:32:43Z</time>
      </trkpt>
      <trkpt lat="43.55609" lon="5.86745">
        <ele>471</ele>
        <time>2018-03-18T08:32:52Z</time>
      </trkpt>
      <trkpt lat="43.55619" lon="5.86771">
        <ele>464</ele>
        <time>2018-03-18T08:32:59Z</time>
      </trkpt>
      <trkpt lat="43.5563" lon="5.86793">
        <ele>462</ele>
        <time>2018-03-18T08:33:05Z</time>
      </trkpt>
      <trkpt lat="43.5564" lon="5.86816">
        <ele>459</ele>
        <time>2018-03-18T08:33:11Z</time>
      </trkpt>
      <trkpt lat="43.55646" lon="5.86844">
        <ele>453</ele>
        <time>2018-03-18T08:33:16Z</time>
      </trkpt>
      <trkpt lat="43.5565" lon="5.86872">
        <ele>452</ele>
        <time>2018-03-18T08:33:21Z</time>
      </trkpt>
      <trkpt lat="43.55653" lon="5.86898">
        <ele>451</ele>
        <time>2018-03-18T08:33:26Z</time>
      </trkpt>
      <trkpt lat="43.55662" lon="5.86925">
        <ele>447</ele>
        <time>2018-03-18T08:33:31Z</time>
      </trkpt>
      <trkpt lat="43.55672" lon="5.86947">
        <ele>441</ele>
        <time>2018-03-18T08:33:35Z</time>
      </trkpt>
      <trkpt lat="43.55683" lon="5.86971">
        <ele>440</ele>
        <time>2018-03-18T08:33:39Z</time>
      </trkpt>
      <trkpt lat="43.55694" lon="5.86998">
        <ele>439</ele>
        <time>2018-03-18T08:33:43Z</time>
      </trkpt>
      <trkpt lat="43.55709" lon="5.87013">
        <ele>435</ele>
        <time>2018-03-18T08:33:47Z</time>
      </trkpt>
      <trkpt lat="43.55719" lon="5.87037">
        <ele>435</ele>
        <time>2018-03-18T08:33:51Z</time>
      </trkpt>
      <trkpt lat="43.55731" lon="5.87063">
        <ele>434</ele>
        <time>2018-03-18T08:33:56Z</time>
      </trkpt>
      <trkpt lat="43.55745" lon="5.87083">
        <ele>433</ele>
        <time>2018-03-18T08:34:01Z</time>
      </trkpt>
      <trkpt lat="43.55763" lon="5.87098">
        <ele>434</ele>
        <time>2018-03-18T08:34:06Z</time>
      </trkpt>
      <trkpt lat="43.55777" lon="5.87119">
        <ele>434</ele>
        <time>2018-03-18T08:34:11Z</time>
      </trkpt>
      <trkpt lat="43.55782" lon="5.87145">
        <ele>434</ele>
        <time>2018-03-18T08:34:38Z</time>
      </trkpt>
      <trkpt lat="43.55773" lon="5.87166">
        <ele>433</ele>
        <time>2018-03-18T08:35:47Z</time>
      </trkpt>
      <trkpt lat="43.55761" lon="5.87187">
        <ele>436</ele>
        <time>2018-03-18T08:36:21Z</time>
      </trkpt>
      <trkpt lat="43.55743" lon="5.87188">
        <ele>431</ele>
        <time>2018-03-18T08:36:31Z</time>
      </trkpt>
      <trkpt lat="43.55725" lon="5.87189">
        <ele>431</ele>
        <time>2018-03-18T08:37:58Z</time>
      </trkpt>
      <trkpt lat="43.55707" lon="5.87194">
        <ele>430</ele>
        <time>2018-03-18T08:38:05Z</time>
      </trkpt>
      <trkpt lat="43.55688" lon="5.87203">
        <ele>430</ele>
        <time>2018-03-18T08:38:11Z</time>
      </trkpt>
      <trkpt lat="43.55676" lon="5.87222">
        <ele>429</ele>
        <time>2018-03-18T08:38:17Z</time>
      </trkpt>
      <trkpt lat="43.55661" lon="5.87243">
        <ele>426</ele>
        <time>2018-03-18T08:38:23Z</time>
      </trkpt>
      <trkpt lat="43.5565" lon="5.87265">
        <ele>425</ele>
        <time>2018-03-18T08:38:29Z</time>
      </trkpt>
      <trkpt lat="43.55648" lon="5.87289">
        <ele>424</ele>
        <time>2018-03-18T08:38:34Z</time>
      </trkpt>
      <trkpt lat="43.55642" lon="5.87318">
        <ele>424</ele>
        <time>2018-03-18T08:38:40Z</time>
      </trkpt>
      <trkpt lat="43.55644" lon="5.87344">
        <ele>424</ele>
        <time>2018-03-18T08:38:48Z</time>
      </trkpt>
      <trkpt lat="43.55643" lon="5.87371">
        <ele>423</ele>
        <time>2018-03-18T08:38:54Z</time>
      </trkpt>
      <trkpt lat="43.55643" lon="5.87396">
        <ele>423</ele>
        <time>2018-03-18T08:39:00Z</time>
      </trkpt>
      <trkpt lat="43.55649" lon="5.87422">
        <ele>423</ele>
        <time>2018-03-18T08:39:07Z</time>
      </trkpt>
      <trkpt lat="43.55647" lon="5.87447">
        <ele>423</ele>
        <time>2018-03-18T08:39:12Z</time>
      </trkpt>
      <trkpt lat="43.5564" lon="5.87471">
        <ele>423</ele>
        <time>2018-03-18T08:39:17Z</time>
      </trkpt>
      <trkpt lat="43.55641" lon="5.87498">
        <ele>424</ele>
        <time>2018-03-18T08:39:22Z</time>
      </trkpt>
      <trkpt lat="43.55639" lon="5.87524">
        <ele>425</ele>
        <time>2018-03-18T08:39:27Z</time>
      </trkpt>
      <trkpt lat="43.55641" lon="5.87552">
        <ele>426</ele>
        <time>2018-03-18T08:39:33Z</time>
      </trkpt>
      <trkpt lat="43.55636" lon="5.87581">
        <ele>426</ele>
        <time>2018-03-18T08:39:40Z</time>
      </trkpt>
      <trkpt lat="43.55634" lon="5.87607">
        <ele>427</ele>
        <time>2018-03-18T08:39:45Z</time>
      </trkpt>
      <trkpt lat="43.55626" lon="5.87633">
        <ele>427</ele>
        <time>2018-03-18T08:39:50Z</time>
      </trkpt>
      <trkpt lat="43.55622" lon="5.87659">
        <ele>427</ele>
        <time>2018-03-18T08:39:54Z</time>
      </trkpt>
      <trkpt lat="43.55616" lon="5.87685">
        <ele>429</ele>
        <time>2018-03-18T08:39:58Z</time>
      </trkpt>
      <trkpt lat="43.55609" lon="5.8771">
        <ele>429</ele>
        <time>2018-03-18T08:40:03Z</time>
      </trkpt>
      <trkpt lat="43.55602" lon="5.87737">
        <ele>428</ele>
        <time>2018-03-18T08:40:09Z</time>
      </trkpt>
      <trkpt lat="43.55591" lon="5.87759">
        <ele>429</ele>
        <time>2018-03-18T08:40:14Z</time>
      </trkpt>
      <trkpt lat="43.55585" lon="5.87783">
        <ele>433</ele>
        <time>2018-03-18T08:40:19Z</time>
      </trkpt>
      <trkpt lat="43.55579" lon="5.8781">
        <ele>428</ele>
        <time>2018-03-18T08:40:26Z</time>
      </trkpt>
      <trkpt lat="43.55571" lon="5.87832">
        <ele>431</ele>
        <time>2018-03-18T08:40:32Z</time>
      </trkpt>
      <trkpt lat="43.5556" lon="5.87853">
        <ele>432</ele>
        <time>2018-03-18T08:40:40Z</time>
      </trkpt>
      <trkpt lat="43.55545" lon="5.87871">
        <ele>432</ele>
        <time>2018-03-18T08:40:48Z</time>
      </trkpt>
      <trkpt lat="43.55537" lon="5.87896">
        <ele>432</ele>
        <time>2018-03-18T08:40:55Z</time>
      </trkpt>
      <trkpt lat="43.55527" lon="5.87919">
        <ele>433</ele>
        <time>2018-03-18T08:41:03Z</time>
      </trkpt>
      <trkpt lat="43.55529" lon="5.87947">
        <ele>433</ele>
        <time>2018-03-18T08:41:10Z</time>
      </trkpt>
      <trkpt lat="43.55533" lon="5.87972">
        <ele>433</ele>
        <time>2018-03-18T08:41:15Z</time>
      </trkpt>
      <trkpt lat="43.55541" lon="5.87998">
        <ele>434</ele>
        <time>2018-03-18T08:41:20Z</time>
      </trkpt>
      <trkpt lat="43.55547" lon="5.88024">
        <ele>433</ele>
        <time>2018-03-18T08:41:25Z</time>
      </trkpt>
      <trkpt lat="43.55558" lon="5.88046">
        <ele>433</ele>
        <time>2018-03-18T08:41:31Z</time>
      </trkpt>
      <trkpt lat="43.55571" lon="5.88065">
        <ele>432</ele>
        <time>2018-03-18T08:41:38Z</time>
      </trkpt>
      <trkpt lat="43.55587" lon="5.88075">
        <ele>433</ele>
        <time>2018-03-18T08:41:45Z</time>
      </trkpt>
      <trkpt lat="43.55607" lon="5.88076">
        <ele>434</ele>
        <time>2018-03-18T08:41:53Z</time>
      </trkpt>
      <trkpt lat="43.55624" lon="5.88087">
        <ele>435</ele>
        <time>2018-03-18T08:42:01Z</time>
      </trkpt>
      <trkpt lat="43.55637" lon="5.88107">
        <ele>435</ele>
        <time>2018-03-18T08:42:08Z</time>
      </trkpt>
      <trkpt lat="43.55647" lon="5.88131">
        <ele>436</ele>
        <time>2018-03-18T08:42:14Z</time>
      </trkpt>
      <trkpt lat="43.55654" lon="5.88154">
        <ele>436</ele>
        <time>2018-03-18T08:42:20Z</time>
      </trkpt>
      <trkpt lat="43.55662" lon="5.88177">
        <ele>438</ele>
        <time>2018-03-18T08:42:26Z</time>
      </trkpt>
      <trkpt lat="43.55666" lon="5.88204">
        <ele>438</ele>
        <time>2018-03-18T08:42:33Z</time>
      </trkpt>
      <trkpt lat="43.55666" lon="5.88231">
        <ele>438</ele>
        <time>2018-03-18T08:42:40Z</time>
      </trkpt>
      <trkpt lat="43.55675" lon="5.88253">
        <ele>439</ele>
        <time>2018-03-18T08:42:49Z</time>
      </trkpt>
      <trkpt lat="43.55689" lon="5.8827">
        <ele>442</ele>
        <time>2018-03-18T08:42:57Z</time>
      </trkpt>
      <trkpt lat="43.55697" lon="5.88293">
        <ele>442</ele>
        <time>2018-03-18T08:43:06Z</time>
      </trkpt>
      <trkpt lat="43.55713" lon="5.88308">
        <ele>443</ele>
        <time>2018-03-18T08:43:15Z</time>
      </trkpt>
      <trkpt lat="43.55726" lon="5.88327">
        <ele>444</ele>
        <time>2018-03-18T08:43:25Z</time>
      </trkpt>
      <trkpt lat="43.55734" lon="5.88351">
        <ele>445</ele>
        <time>2018-03-18T08:43:34Z</time>
      </trkpt>
      <trkpt lat="43.55741" lon="5.88377">
        <ele>445</ele>
        <time>2018-03-18T08:43:43Z</time>
      </trkpt>
      <trkpt lat="43.55744" lon="5.88403">
        <ele>446</ele>
        <time>2018-03-18T08:43:52Z</time>
      </trkpt>
      <trkpt lat="43.55748" lon="5.88427">
        <ele>446</ele>
        <time>2018-03-18T08:44:01Z</time>
      </trkpt>
      <trkpt lat="43.55752" lon="5.88452">
        <ele>450</ele>
        <time>2018-03-18T08:44:10Z</time>
      </trkpt>
      <trkpt lat="43.55755" lon="5.88477">
        <ele>449</ele>
        <time>2018-03-18T08:44:18Z</time>
      </trkpt>
      <trkpt lat="43.55759" lon="5.88503">
        <ele>446</ele>
        <time>2018-03-18T08:44:27Z</time>
      </trkpt>
      <trkpt lat="43.55761" lon="5.88513">
        <ele>447</ele>
        <time>2018-03-18T08:46:19Z</time>
      </trkpt>
      <trkpt lat="43.55766" lon="5.88538">
        <ele>449</ele>
        <time>2018-03-18T08:49:09Z</time>
      </trkpt>
      <trkpt lat="43.55776" lon="5.88559">
        <ele>450</ele>
        <time>2018-03-18T08:49:20Z</time>
      </trkpt>
      <trkpt lat="43.55792" lon="5.88572">
        <ele>451</ele>
        <time>2018-03-18T08:49:32Z</time>
      </trkpt>
      <trkpt lat="43.55809" lon="5.8858">
        <ele>453</ele>
        <time>2018-03-18T08:49:44Z</time>
      </trkpt>
      <trkpt lat="43.55827" lon="5.88587">
        <ele>455</ele>
        <time>2018-03-18T08:49:56Z</time>
      </trkpt>
      <trkpt lat="43.55842" lon="5.88603">
        <ele>458</ele>
        <time>2018-03-18T08:50:07Z</time>
      </trkpt>
      <trkpt lat="43.55857" lon="5.88618">
        <ele>459</ele>
        <time>2018-03-18T08:50:20Z</time>
      </trkpt>
      <trkpt lat="43.55875" lon="5.88631">
        <ele>460</ele>
        <time>2018-03-18T08:50:33Z</time>
      </trkpt>
      <trkpt lat="43.55892" lon="5.8864">
        <ele>460</ele>
        <time>2018-03-18T08:50:42Z</time>
      </trkpt>
      <trkpt lat="43.55909" lon="5.88651">
        <ele>461</ele>
        <time>2018-03-18T08:50:51Z</time>
      </trkpt>
      <trkpt lat="43.55926" lon="5.88657">
        <ele>462</ele>
        <time>2018-03-18T08:50:59Z</time>
      </trkpt>
      <trkpt lat="43.55942" lon="5.8867">
        <ele>460</ele>
        <time>2018-03-18T08:51:07Z</time>
      </trkpt>
      <trkpt lat="43.5596" lon="5.88682">
        <ele>460</ele>
        <time>2018-03-18T08:51:15Z</time>
      </trkpt>
      <trkpt lat="43.55979" lon="5.88693">
        <ele>460</ele>
        <time>2018-03-18T08:51:22Z</time>
      </trkpt>
      <trkpt lat="43.55999" lon="5.88698">
        <ele>460</ele>
        <time>2018-03-18T08:51:29Z</time>
      </trkpt>
      <trkpt lat="43.56019" lon="5.88701">
        <ele>460</ele>
        <time>2018-03-18T08:51:36Z</time>
      </trkpt>
      <trkpt lat="43.56039" lon="5.88702">
        <ele>460</ele>
        <time>2018-03-18T08:51:44Z</time>
      </trkpt>
      <trkpt lat="43.56023" lon="5.88715">
        <ele>459</ele>
        <time>2018-03-18T08:52:04Z</time>
      </trkpt>
      <trkpt lat="43.56004" lon="5.88717">
        <ele>459</ele>
        <time>2018-03-18T08:52:18Z</time>
      </trkpt>
      <trkpt lat="43.55984" lon="5.88724">
        <ele>459</ele>
        <time>2018-03-18T08:52:26Z</time>
      </trkpt>
      <trkpt lat="43.55966" lon="5.88727">
        <ele>460</ele>
        <time>2018-03-18T08:52:34Z</time>
      </trkpt>
      <trkpt lat="43.55946" lon="5.88723">
        <ele>460</ele>
        <time>2018-03-18T08:52:42Z</time>
      </trkpt>
      <trkpt lat="43.55928" lon="5.88717">
        <ele>460</ele>
        <time>2018-03-18T08:52:49Z</time>
      </trkpt>
      <trkpt lat="43.55909" lon="5.88715">
        <ele>460</ele>
        <time>2018-03-18T08:52:55Z</time>
      </trkpt>
      <trkpt lat="43.55891" lon="5.88723">
        <ele>459</ele>
        <time>2018-03-18T08:53:02Z</time>
      </trkpt>
      <trkpt lat="43.55874" lon="5.88732">
        <ele>459</ele>
        <time>2018-03-18T08:53:08Z</time>
      </trkpt>
      <trkpt lat="43.55855" lon="5.88744">
        <ele>459</ele>
        <time>2018-03-18T08:53:13Z</time>
      </trkpt>
      <trkpt lat="43.55837" lon="5.88757">
        <ele>458</ele>
        <time>2018-03-18T08:53:20Z</time>
      </trkpt>
      <trkpt lat="43.55821" lon="5.88771">
        <ele>456</ele>
        <time>2018-03-18T08:53:26Z</time>
      </trkpt>
      <trkpt lat="43.55802" lon="5.88784">
        <ele>455</ele>
        <time>2018-03-18T08:53:32Z</time>
      </trkpt>
      <trkpt lat="43.55784" lon="5.8879">
        <ele>454</ele>
        <time>2018-03-18T08:53:37Z</time>
      </trkpt>
      <trkpt lat="43.55764" lon="5.88795">
        <ele>454</ele>
        <time>2018-03-18T08:53:42Z</time>
      </trkpt>
      <trkpt lat="43.55743" lon="5.88804">
        <ele>452</ele>
        <time>2018-03-18T08:53:47Z</time>
      </trkpt>
      <trkpt lat="43.55723" lon="5.88811">
        <ele>452</ele>
        <time>2018-03-18T08:53:52Z</time>
      </trkpt>
      <trkpt lat="43.55701" lon="5.88809">
        <ele>451</ele>
        <time>2018-03-18T08:53:57Z</time>
      </trkpt>
      <trkpt lat="43.5568" lon="5.88807">
        <ele>451</ele>
        <time>2018-03-18T08:54:01Z</time>
      </trkpt>
      <trkpt lat="43.55662" lon="5.88822">
        <ele>449</ele>
        <time>2018-03-18T08:54:05Z</time>
      </trkpt>
      <trkpt lat="43.55646" lon="5.88839">
        <ele>448</ele>
        <time>2018-03-18T08:54:09Z</time>
      </trkpt>
      <trkpt lat="43.55631" lon="5.88857">
        <ele>448</ele>
        <time>2018-03-18T08:54:13Z</time>
      </trkpt>
      <trkpt lat="43.55614" lon="5.88865">
        <ele>447</ele>
        <time>2018-03-18T08:54:17Z</time>
      </trkpt>
      <trkpt lat="43.55599" lon="5.88882">
        <ele>447</ele>
        <time>2018-03-18T08:54:22Z</time>
      </trkpt>
      <trkpt lat="43.55584" lon="5.88903">
        <ele>446</ele>
        <time>2018-03-18T08:54:27Z</time>
      </trkpt>
      <trkpt lat="43.55569" lon="5.88918">
        <ele>444</ele>
        <time>2018-03-18T08:54:31Z</time>
      </trkpt>
      <trkpt lat="43.55552" lon="5.88932">
        <ele>444</ele>
        <time>2018-03-18T08:54:35Z</time>
      </trkpt>
      <trkpt lat="43.55533" lon="5.88938">
        <ele>444</ele>
        <time>2018-03-18T08:54:39Z</time>
      </trkpt>
      <trkpt lat="43.55512" lon="5.88936">
        <ele>444</ele>
        <time>2018-03-18T08:54:43Z</time>
      </trkpt>
      <trkpt lat="43.55491" lon="5.88948">
        <ele>442</ele>
        <time>2018-03-18T08:54:48Z</time>
      </trkpt>
      <trkpt lat="43.55472" lon="5.88957">
        <ele>442</ele>
        <time>2018-03-18T08:54:52Z</time>
      </trkpt>
      <trkpt lat="43.55454" lon="5.88969">
        <ele>441</ele>
        <time>2018-03-18T08:54:56Z</time>
      </trkpt>
      <trkpt lat="43.55437" lon="5.88987">
        <ele>441</ele>
        <time>2018-03-18T08:55:00Z</time>
      </trkpt>
      <trkpt lat="43.55418" lon="5.89">
        <ele>439</ele>
        <time>2018-03-18T08:55:04Z</time>
      </trkpt>
      <trkpt lat="43.55398" lon="5.89014">
        <ele>438</ele>
        <time>2018-03-18T08:55:08Z</time>
      </trkpt>
      <trkpt lat="43.55378" lon="5.89025">
        <ele>437</ele>
        <time>2018-03-18T08:55:12Z</time>
      </trkpt>
      <trkpt lat="43.55357" lon="5.89035">
        <ele>437</ele>
        <time>2018-03-18T08:55:16Z</time>
      </trkpt>
      <trkpt lat="43.55337" lon="5.89046">
        <ele>436</ele>
        <time>2018-03-18T08:55:20Z</time>
      </trkpt>
      <trkpt lat="43.55316" lon="5.89056">
        <ele>432</ele>
        <time>2018-03-18T08:55:24Z</time>
      </trkpt>
      <trkpt lat="43.55297" lon="5.89065">
        <ele>431</ele>
        <time>2018-03-18T08:55:28Z</time>
      </trkpt>
      <trkpt lat="43.55282" lon="5.89083">
        <ele>430</ele>
        <time>2018-03-18T08:58:10Z</time>
      </trkpt>
      <trkpt lat="43.55266" lon="5.89097">
        <ele>431</ele>
        <time>2018-03-18T08:58:17Z</time>
      </trkpt>
      <trkpt lat="43.55251" lon="5.89113">
        <ele>432</ele>
        <time>2018-03-18T08:58:23Z</time>
      </trkpt>
      <trkpt lat="43.55232" lon="5.89129">
        <ele>427</ele>
        <time>2018-03-18T08:58:28Z</time>
      </trkpt>
      <trkpt lat="43.55217" lon="5.89151">
        <ele>427</ele>
        <time>2018-03-18T08:58:32Z</time>
      </trkpt>
      <trkpt lat="43.55204" lon="5.89174">
        <ele>427</ele>
        <time>2018-03-18T08:58:36Z</time>
      </trkpt>
      <trkpt lat="43.55192" lon="5.89194">
        <ele>426</ele>
        <time>2018-03-18T08:58:39Z</time>
      </trkpt>
      <trkpt lat="43.5518" lon="5.89216">
        <ele>426</ele>
        <time>2018-03-18T08:58:42Z</time>
      </trkpt>
      <trkpt lat="43.55166" lon="5.89241">
        <ele>421</ele>
        <time>2018-03-18T08:58:46Z</time>
      </trkpt>
      <trkpt lat="43.55159" lon="5.8927">
        <ele>420</ele>
        <time>2018-03-18T08:58:50Z</time>
      </trkpt>
      <trkpt lat="43.55149" lon="5.89295">
        <ele>419</ele>
        <time>2018-03-18T08:58:54Z</time>
      </trkpt>
      <trkpt lat="43.55131" lon="5.89306">
        <ele>418</ele>
        <time>2018-03-18T08:59:05Z</time>
      </trkpt>
      <trkpt lat="43.55112" lon="5.89297">
        <ele>417</ele>
        <time>2018-03-18T08:59:11Z</time>
      </trkpt>
      <trkpt lat="43.55094" lon="5.89288">
        <ele>417</ele>
        <time>2018-03-18T08:59:15Z</time>
      </trkpt>
      <trkpt lat="43.55074" lon="5.89278">
        <ele>414</ele>
        <time>2018-03-18T08:59:19Z</time>
      </trkpt>
      <trkpt lat="43.55051" lon="5.89269">
        <ele>414</ele>
        <time>2018-03-18T08:59:23Z</time>
      </trkpt>
      <trkpt lat="43.55033" lon="5.8926">
        <ele>415</ele>
        <time>2018-03-18T08:59:26Z</time>
      </trkpt>
      <trkpt lat="43.55014" lon="5.8925">
        <ele>416</ele>
        <time>2018-03-18T08:59:29Z</time>
      </trkpt>
      <trkpt lat="43.54991" lon="5.89242">
        <ele>416</ele>
        <time>2018-03-18T08:59:32Z</time>
      </trkpt>
      <trkpt lat="43.54972" lon="5.8924">
        <ele>416</ele>
        <time>2018-03-18T08:59:35Z</time>
      </trkpt>
      <trkpt lat="43.5495" lon="5.8924">
        <ele>416</ele>
        <time>2018-03-18T09:02:37Z</time>
      </trkpt>
      <trkpt lat="43.5493" lon="5.89246">
        <ele>416</ele>
        <time>2018-03-18T09:02:45Z</time>
      </trkpt>
      <trkpt lat="43.54909" lon="5.89246">
        <ele>416</ele>
        <time>2018-03-18T09:02:53Z</time>
      </trkpt>
      <trkpt lat="43.5489" lon="5.89243">
        <ele>415</ele>
        <time>2018-03-18T09:03:00Z</time>
      </trkpt>
      <trkpt lat="43.54872" lon="5.89242">
        <ele>415</ele>
        <time>2018-03-18T09:03:06Z</time>
      </trkpt>
      <trkpt lat="43.54852" lon="5.89243">
        <ele>415</ele>
        <time>2018-03-18T09:03:12Z</time>
      </trkpt>
      <trkpt lat="43.54833" lon="5.89245">
        <ele>415</ele>
        <time>2018-03-18T09:03:18Z</time>
      </trkpt>
      <trkpt lat="43.54815" lon="5.89247">
        <ele>414</ele>
        <time>2018-03-18T09:03:23Z</time>
      </trkpt>
      <trkpt lat="43.54794" lon="5.89249">
        <ele>413</ele>
        <time>2018-03-18T09:03:28Z</time>
      </trkpt>
      <trkpt lat="43.54775" lon="5.89254">
        <ele>415</ele>
        <time>2018-03-18T09:03:33Z</time>
      </trkpt>
      <trkpt lat="43.54757" lon="5.89258">
        <ele>414</ele>
        <time>2018-03-18T09:03:37Z</time>
      </trkpt>
      <trkpt lat="43.54738" lon="5.89264">
        <ele>414</ele>
        <time>2018-03-18T09:03:41Z</time>
      </trkpt>
      <trkpt lat="43.54719" lon="5.89269">
        <ele>414</ele>
        <time>2018-03-18T09:03:45Z</time>
      </trkpt>
      <trkpt lat="43.54699" lon="5.89276">
        <ele>414</ele>
        <time>2018-03-18T09:03:50Z</time>
      </trkpt>
      <trkpt lat="43.54681" lon="5.89284">
        <ele>414</ele>
        <time>2018-03-18T09:03:55Z</time>
      </trkpt>
      <trkpt lat="43.54662" lon="5.89295">
        <ele>412</ele>
        <time>2018-03-18T09:04:00Z</time>
      </trkpt>
      <trkpt lat="43.54642" lon="5.89305">
        <ele>411</ele>
        <time>2018-03-18T09:04:05Z</time>
      </trkpt>
      <trkpt lat="43.54621" lon="5.89315">
        <ele>410</ele>
        <time>2018-03-18T09:04:10Z</time>
      </trkpt>
      <trkpt lat="43.54602" lon="5.89323">
        <ele>409</ele>
        <time>2018-03-18T09:04:14Z</time>
      </trkpt>
      <trkpt lat="43.5458" lon="5.89329">
        <ele>406</ele>
        <time>2018-03-18T09:04:18Z</time>
      </trkpt>
      <trkpt lat="43.54562" lon="5.89327">
        <ele>404</ele>
        <time>2018-03-18T09:04:21Z</time>
      </trkpt>
      <trkpt lat="43.54541" lon="5.89322">
        <ele>402</ele>
        <time>2018-03-18T09:04:24Z</time>
      </trkpt>
      <trkpt lat="43.5452" lon="5.89313">
        <ele>401</ele>
        <time>2018-03-18T09:04:27Z</time>
      </trkpt>
      <trkpt lat="43.54498" lon="5.89307">
        <ele>396</ele>
        <time>2018-03-18T09:04:30Z</time>
      </trkpt>
      <trkpt lat="43.54477" lon="5.89319">
        <ele>395</ele>
        <time>2018-03-18T09:04:33Z</time>
      </trkpt>
      <trkpt lat="43.54456" lon="5.89333">
        <ele>394</ele>
        <time>2018-03-18T09:04:36Z</time>
      </trkpt>
      <trkpt lat="43.54437" lon="5.89341">
        <ele>393</ele>
        <time>2018-03-18T09:04:39Z</time>
      </trkpt>
      <trkpt lat="43.54423" lon="5.89358">
        <ele>393</ele>
        <time>2018-03-18T09:04:43Z</time>
      </trkpt>
      <trkpt lat="43.54413" lon="5.89382">
        <ele>388</ele>
        <time>2018-03-18T09:04:48Z</time>
      </trkpt>
      <trkpt lat="43.54403" lon="5.89403">
        <ele>388</ele>
        <time>2018-03-18T09:04:53Z</time>
      </trkpt>
      <trkpt lat="43.54391" lon="5.89422">
        <ele>389</ele>
        <time>2018-03-18T09:05:43Z</time>
      </trkpt>
      <trkpt lat="43.54396" lon="5.89448">
        <ele>390</ele>
        <time>2018-03-18T09:05:55Z</time>
      </trkpt>
      <trkpt lat="43.54402" lon="5.89474">
        <ele>391</ele>
        <time>2018-03-18T09:06:02Z</time>
      </trkpt>
      <trkpt lat="43.54407" lon="5.895">
        <ele>394</ele>
        <time>2018-03-18T09:06:11Z</time>
      </trkpt>
      <trkpt lat="43.54407" lon="5.89529">
        <ele>395</ele>
        <time>2018-03-18T09:06:19Z</time>
      </trkpt>
      <trkpt lat="43.54402" lon="5.89553">
        <ele>396</ele>
        <time>2018-03-18T09:06:27Z</time>
      </trkpt>
      <trkpt lat="43.54403" lon="5.8958">
        <ele>396</ele>
        <time>2018-03-18T09:06:37Z</time>
      </trkpt>
      <trkpt lat="43.54401" lon="5.89606">
        <ele>397</ele>
        <time>2018-03-18T09:06:46Z</time>
      </trkpt>
      <trkpt lat="43.5439" lon="5.8963">
        <ele>398</ele>
        <time>2018-03-18T09:06:53Z</time>
      </trkpt>
      <trkpt lat="43.54377" lon="5.89652">
        <ele>398</ele>
        <time>2018-03-18T09:06:59Z</time>
      </trkpt>
      <trkpt lat="43.5437" lon="5.89675">
        <ele>400</ele>
        <time>2018-03-18T09:07:25Z</time>
      </trkpt>
      <trkpt lat="43.54372" lon="5.89701">
        <ele>400</ele>
        <time>2018-03-18T09:07:33Z</time>
      </trkpt>
      <trkpt lat="43.54386" lon="5.89717">
        <ele>400</ele>
        <time>2018-03-18T09:07:39Z</time>
      </trkpt>
      <trkpt lat="43.54404" lon="5.89727">
        <ele>399</ele>
        <time>2018-03-18T09:07:45Z</time>
      </trkpt>
      <trkpt lat="43.54423" lon="5.89729">
        <ele>400</ele>
        <time>2018-03-18T09:07:50Z</time>
      </trkpt>
      <trkpt lat="43.54444" lon="5.89734">
        <ele>400</ele>
        <time>2018-03-18T09:07:56Z</time>
      </trkpt>
      <trkpt lat="43.54463" lon="5.89738">
        <ele>401</ele>
        <time>2018-03-18T09:08:02Z</time>
      </trkpt>
      <trkpt lat="43.54478" lon="5.8972">
        <ele>402</ele>
        <time>2018-03-18T09:08:08Z</time>
      </trkpt>
      <trkpt lat="43.54494" lon="5.89704">
        <ele>402</ele>
        <time>2018-03-18T09:08:14Z</time>
      </trkpt>
      <trkpt lat="43.5451" lon="5.89689">
        <ele>405</ele>
        <time>2018-03-18T09:08:20Z</time>
      </trkpt>
      <trkpt lat="43.54528" lon="5.89676">
        <ele>405</ele>
        <time>2018-03-18T09:08:26Z</time>
      </trkpt>
      <trkpt lat="43.54546" lon="5.89667">
        <ele>405</ele>
        <time>2018-03-18T09:08:32Z</time>
      </trkpt>
      <trkpt lat="43.54563" lon="5.89652">
        <ele>405</ele>
        <time>2018-03-18T09:08:38Z</time>
      </trkpt>
      <trkpt lat="43.54579" lon="5.89641">
        <ele>405</ele>
        <time>2018-03-18T09:08:43Z</time>
      </trkpt>
      <trkpt lat="43.54598" lon="5.89632">
        <ele>405</ele>
        <time>2018-03-18T09:08:49Z</time>
      </trkpt>
      <trkpt lat="43.54618" lon="5.89632">
        <ele>405</ele>
        <time>2018-03-18T09:08:55Z</time>
      </trkpt>
      <trkpt lat="43.54635" lon="5.89642">
        <ele>405</ele>
        <time>2018-03-18T09:09:01Z</time>
      </trkpt>
      <trkpt lat="43.54649" lon="5.89659">
        <ele>404</ele>
        <time>2018-03-18T09:09:08Z</time>
      </trkpt>
      <trkpt lat="43.54655" lon="5.89686">
        <ele>403</ele>
        <time>2018-03-18T09:09:16Z</time>
      </trkpt>
      <trkpt lat="43.54653" lon="5.89711">
        <ele>404</ele>
        <time>2018-03-18T09:09:22Z</time>
      </trkpt>
      <trkpt lat="43.54649" lon="5.89738">
        <ele>404</ele>
        <time>2018-03-18T09:09:28Z</time>
      </trkpt>
      <trkpt lat="43.54644" lon="5.89765">
        <ele>407</ele>
        <time>2018-03-18T09:09:34Z</time>
      </trkpt>
      <trkpt lat="43.54644" lon="5.89791">
        <ele>408</ele>
        <time>2018-03-18T09:09:40Z</time>
      </trkpt>
      <trkpt lat="43.54654" lon="5.89813">
        <ele>407</ele>
        <time>2018-03-18T09:09:46Z</time>
      </trkpt>
      <trkpt lat="43.54666" lon="5.89832">
        <ele>405</ele>
        <time>2018-03-18T09:09:52Z</time>
      </trkpt>
      <trkpt lat="43.54678" lon="5.89853">
        <ele>407</ele>
        <time>2018-03-18T09:09:59Z</time>
      </trkpt>
      <trkpt lat="43.54682" lon="5.8988">
        <ele>407</ele>
        <time>2018-03-18T09:10:07Z</time>
      </trkpt>
      <trkpt lat="43.54688" lon="5.89907">
        <ele>408</ele>
        <time>2018-03-18T09:13:51Z</time>
      </trkpt>
      <trkpt lat="43.54691" lon="5.89932">
        <ele>409</ele>
        <time>2018-03-18T09:14:00Z</time>
      </trkpt>
      <trkpt lat="43.54708" lon="5.89942">
        <ele>410</ele>
        <time>2018-03-18T09:14:33Z</time>
      </trkpt>
      <trkpt lat="43.54705" lon="5.89967">
        <ele>410</ele>
        <time>2018-03-18T09:14:49Z</time>
      </trkpt>
      <trkpt lat="43.54705" lon="5.89994">
        <ele>411</ele>
        <time>2018-03-18T09:15:21Z</time>
      </trkpt>
      <trkpt lat="43.54714" lon="5.90018">
        <ele>413</ele>
        <time>2018-03-18T09:15:59Z</time>
      </trkpt>
      <trkpt lat="43.54725" lon="5.90038">
        <ele>413</ele>
        <time>2018-03-18T09:16:09Z</time>
      </trkpt>
      <trkpt lat="43.5474" lon="5.90055">
        <ele>413</ele>
        <time>2018-03-18T09:16:21Z</time>
      </trkpt>
      <trkpt lat="43.54759" lon="5.90061">
        <ele>410</ele>
        <time>2018-03-18T09:16:30Z</time>
      </trkpt>
      <trkpt lat="43.54775" lon="5.90074">
        <ele>411</ele>
        <time>2018-03-18T09:16:38Z</time>
      </trkpt>
      <trkpt lat="43.54794" lon="5.90083">
        <ele>411</ele>
        <time>2018-03-18T09:16:45Z</time>
      </trkpt>
      <trkpt lat="43.54809" lon="5.90096">
        <ele>411</ele>
        <time>2018-03-18T09:16:51Z</time>
      </trkpt>
      <trkpt lat="43.54817" lon="5.9012">
        <ele>411</ele>
        <time>2018-03-18T09:16:58Z</time>
      </trkpt>
      <trkpt lat="43.54815" lon="5.90148">
        <ele>411</ele>
        <time>2018-03-18T09:17:05Z</time>
      </trkpt>
      <trkpt lat="43.54807" lon="5.90173">
        <ele>411</ele>
        <time>2018-03-18T09:17:11Z</time>
      </trkpt>
      <trkpt lat="43.548" lon="5.90198">
        <ele>412</ele>
        <time>2018-03-18T09:17:17Z</time>
      </trkpt>
      <trkpt lat="43.54789" lon="5.90221">
        <ele>413</ele>
        <time>2018-03-18T09:17:23Z</time>
      </trkpt>
      <trkpt lat="43.54783" lon="5.90248">
        <ele>413</ele>
        <time>2018-03-18T09:17:29Z</time>
      </trkpt>
      <trkpt lat="43.54779" lon="5.90272">
        <ele>414</ele>
        <time>2018-03-18T09:17:35Z</time>
      </trkpt>
      <trkpt lat="43.54774" lon="5.90297">
        <ele>415</ele>
        <time>2018-03-18T09:17:46Z</time>
      </trkpt>
      <trkpt lat="43.54783" lon="5.90321">
        <ele>415</ele>
        <time>2018-03-18T09:19:12Z</time>
      </trkpt>
      <trkpt lat="43.54791" lon="5.90345">
        <ele>417</ele>
        <time>2018-03-18T09:19:19Z</time>
      </trkpt>
      <trkpt lat="43.54792" lon="5.90372">
        <ele>417</ele>
        <time>2018-03-18T09:21:20Z</time>
      </trkpt>
      <trkpt lat="43.54791" lon="5.90347">
        <ele>417</ele>
        <time>2018-03-18T09:22:39Z</time>
      </trkpt>
      <trkpt lat="43.54784" lon="5.90324">
        <ele>415</ele>
        <time>2018-03-18T09:22:49Z</time>
      </trkpt>
      <trkpt lat="43.54774" lon="5.903">
        <ele>415</ele>
        <time>2018-03-18T09:22:57Z</time>
      </trkpt>
      <trkpt lat="43.5478" lon="5.90275">
        <ele>414</ele>
        <time>2018-03-18T09:23:09Z</time>
      </trkpt>
      <trkpt lat="43.54784" lon="5.90249">
        <ele>413</ele>
        <time>2018-03-18T09:23:20Z</time>
      </trkpt>
      <trkpt lat="43.54789" lon="5.90223">
        <ele>413</ele>
        <time>2018-03-18T09:23:29Z</time>
      </trkpt>
      <trkpt lat="43.548" lon="5.90198">
        <ele>412</ele>
        <time>2018-03-18T09:23:37Z</time>
      </trkpt>
      <trkpt lat="43.54807" lon="5.90171">
        <ele>411</ele>
        <time>2018-03-18T09:23:44Z</time>
      </trkpt>
      <trkpt lat="43.54814" lon="5.90148">
        <ele>411</ele>
        <time>2018-03-18T09:23:50Z</time>
      </trkpt>
      <trkpt lat="43.54817" lon="5.90122">
        <ele>411</ele>
        <time>2018-03-18T09:23:56Z</time>
      </trkpt>
      <trkpt lat="43.54809" lon="5.90096">
        <ele>411</ele>
        <time>2018-03-18T09:24:03Z</time>
      </trkpt>
      <trkpt lat="43.54791" lon="5.90083">
        <ele>411</ele>
        <time>2018-03-18T09:24:09Z</time>
      </trkpt>
      <trkpt lat="43.54775" lon="5.90071">
        <ele>411</ele>
        <time>2018-03-18T09:24:15Z</time>
      </trkpt>
      <trkpt lat="43.54757" lon="5.9006">
        <ele>410</ele>
        <time>2018-03-18T09:24:20Z</time>
      </trkpt>
      <trkpt lat="43.54739" lon="5.90054">
        <ele>413</ele>
        <time>2018-03-18T09:24:25Z</time>
      </trkpt>
      <trkpt lat="43.54725" lon="5.90038">
        <ele>413</ele>
        <time>2018-03-18T09:24:34Z</time>
      </trkpt>
      <trkpt lat="43.54713" lon="5.90017">
        <ele>413</ele>
        <time>2018-03-18T09:24:42Z</time>
      </trkpt>
      <trkpt lat="43.54717" lon="5.89991">
        <ele>410</ele>
        <time>2018-03-18T09:25:09Z</time>
      </trkpt>
      <trkpt lat="43.54711" lon="5.89965">
        <ele>410</ele>
        <time>2018-03-18T09:25:18Z</time>
      </trkpt>
      <trkpt lat="43.5471" lon="5.89938">
        <ele>410</ele>
        <time>2018-03-18T09:25:26Z</time>
      </trkpt>
      <trkpt lat="43.54702" lon="5.89914">
        <ele>408</ele>
        <time>2018-03-18T09:25:38Z</time>
      </trkpt>
      <trkpt lat="43.54686" lon="5.89898">
        <ele>408</ele>
        <time>2018-03-18T09:25:45Z</time>
      </trkpt>
      <trkpt lat="43.5468" lon="5.89872">
        <ele>407</ele>
        <time>2018-03-18T09:25:51Z</time>
      </trkpt>
      <trkpt lat="43.54674" lon="5.89844">
        <ele>406</ele>
        <time>2018-03-18T09:25:56Z</time>
      </trkpt>
      <trkpt lat="43.54661" lon="5.89825">
        <ele>406</ele>
        <time>2018-03-18T09:26:00Z</time>
      </trkpt>
      <trkpt lat="43.54647" lon="5.89804">
        <ele>408</ele>
        <time>2018-03-18T09:26:04Z</time>
      </trkpt>
      <trkpt lat="43.54642" lon="5.89775">
        <ele>407</ele>
        <time>2018-03-18T09:26:08Z</time>
      </trkpt>
      <trkpt lat="43.54646" lon="5.89746">
        <ele>404</ele>
        <time>2018-03-18T09:26:12Z</time>
      </trkpt>
      <trkpt lat="43.5465" lon="5.89715">
        <ele>404</ele>
        <time>2018-03-18T09:26:16Z</time>
      </trkpt>
      <trkpt lat="43.54654" lon="5.89685">
        <ele>403</ele>
        <time>2018-03-18T09:26:20Z</time>
      </trkpt>
      <trkpt lat="43.5465" lon="5.89659">
        <ele>404</ele>
        <time>2018-03-18T09:26:24Z</time>
      </trkpt>
      <trkpt lat="43.54635" lon="5.89642">
        <ele>405</ele>
        <time>2018-03-18T09:26:28Z</time>
      </trkpt>
      <trkpt lat="43.54613" lon="5.89631">
        <ele>405</ele>
        <time>2018-03-18T09:26:32Z</time>
      </trkpt>
      <trkpt lat="43.54595" lon="5.89633">
        <ele>405</ele>
        <time>2018-03-18T09:26:35Z</time>
      </trkpt>
      <trkpt lat="43.54573" lon="5.89644">
        <ele>405</ele>
        <time>2018-03-18T09:26:39Z</time>
      </trkpt>
      <trkpt lat="43.54553" lon="5.89658">
        <ele>405</ele>
        <time>2018-03-18T09:26:43Z</time>
      </trkpt>
      <trkpt lat="43.54538" lon="5.89671">
        <ele>405</ele>
        <time>2018-03-18T09:26:47Z</time>
      </trkpt>
      <trkpt lat="43.54521" lon="5.89682">
        <ele>405</ele>
        <time>2018-03-18T09:26:51Z</time>
      </trkpt>
      <trkpt lat="43.54504" lon="5.89696">
        <ele>405</ele>
        <time>2018-03-18T09:26:55Z</time>
      </trkpt>
      <trkpt lat="43.54487" lon="5.89713">
        <ele>402</ele>
        <time>2018-03-18T09:26:59Z</time>
      </trkpt>
      <trkpt lat="43.54472" lon="5.8973">
        <ele>401</ele>
        <time>2018-03-18T09:27:03Z</time>
      </trkpt>
      <trkpt lat="43.54454" lon="5.89742">
        <ele>401</ele>
        <time>2018-03-18T09:27:09Z</time>
      </trkpt>
      <trkpt lat="43.54437" lon="5.89735">
        <ele>400</ele>
        <time>2018-03-18T09:27:14Z</time>
      </trkpt>
      <trkpt lat="43.54416" lon="5.89731">
        <ele>399</ele>
        <time>2018-03-18T09:27:19Z</time>
      </trkpt>
      <trkpt lat="43.54398" lon="5.89727">
        <ele>399</ele>
        <time>2018-03-18T09:27:23Z</time>
      </trkpt>
      <trkpt lat="43.5438" lon="5.89715">
        <ele>400</ele>
        <time>2018-03-18T09:27:27Z</time>
      </trkpt>
      <trkpt lat="43.54367" lon="5.89695">
        <ele>400</ele>
        <time>2018-03-18T09:27:31Z</time>
      </trkpt>
      <trkpt lat="43.5437" lon="5.89668">
        <ele>399</ele>
        <time>2018-03-18T09:27:35Z</time>
      </trkpt>
      <trkpt lat="43.54382" lon="5.89643">
        <ele>398</ele>
        <time>2018-03-18T09:27:39Z</time>
      </trkpt>
      <trkpt lat="43.54396" lon="5.89623">
        <ele>398</ele>
        <time>2018-03-18T09:27:43Z</time>
      </trkpt>
      <trkpt lat="43.54408" lon="5.89598">
        <ele>397</ele>
        <time>2018-03-18T09:27:47Z</time>
      </trkpt>
      <trkpt lat="43.54419" lon="5.89575">
        <ele>397</ele>
        <time>2018-03-18T09:27:51Z</time>
      </trkpt>
      <trkpt lat="43.54426" lon="5.89545">
        <ele>399</ele>
        <time>2018-03-18T09:27:55Z</time>
      </trkpt>
      <trkpt lat="43.54433" lon="5.89518">
        <ele>398</ele>
        <time>2018-03-18T09:27:59Z</time>
      </trkpt>
      <trkpt lat="43.54432" lon="5.89491">
        <ele>396</ele>
        <time>2018-03-18T09:28:03Z</time>
      </trkpt>
      <trkpt lat="43.54429" lon="5.89464">
        <ele>397</ele>
        <time>2018-03-18T09:28:07Z</time>
      </trkpt>
      <trkpt lat="43.54419" lon="5.89438">
        <ele>394</ele>
        <time>2018-03-18T09:28:12Z</time>
      </trkpt>
      <trkpt lat="43.5441" lon="5.89416">
        <ele>389</ele>
        <time>2018-03-18T09:28:16Z</time>
      </trkpt>
      <trkpt lat="43.54409" lon="5.89389">
        <ele>388</ele>
        <time>2018-03-18T09:28:22Z</time>
      </trkpt>
      <trkpt lat="43.54418" lon="5.89365">
        <ele>393</ele>
        <time>2018-03-18T09:28:27Z</time>
      </trkpt>
      <trkpt lat="43.54399" lon="5.89354">
        <ele>389</ele>
        <time>2018-03-18T09:28:44Z</time>
      </trkpt>
      <trkpt lat="43.5438" lon="5.89359">
        <ele>388</ele>
        <time>2018-03-18T09:28:49Z</time>
      </trkpt>
      <trkpt lat="43.5436" lon="5.89359">
        <ele>388</ele>
        <time>2018-03-18T09:28:55Z</time>
      </trkpt>
      <trkpt lat="43.54342" lon="5.89357">
        <ele>388</ele>
        <time>2018-03-18T09:29:00Z</time>
      </trkpt>
      <trkpt lat="43.54324" lon="5.89354">
        <ele>386</ele>
        <time>2018-03-18T09:29:05Z</time>
      </trkpt>
      <trkpt lat="43.54303" lon="5.89349">
        <ele>386</ele>
        <time>2018-03-18T09:29:10Z</time>
      </trkpt>
      <trkpt lat="43.54285" lon="5.89343">
        <ele>386</ele>
        <time>2018-03-18T09:29:15Z</time>
      </trkpt>
      <trkpt lat="43.54264" lon="5.89343">
        <ele>385</ele>
        <time>2018-03-18T09:29:20Z</time>
      </trkpt>
      <trkpt lat="43.54241" lon="5.89341">
        <ele>385</ele>
        <time>2018-03-18T09:29:24Z</time>
      </trkpt>
      <trkpt lat="43.54223" lon="5.89333">
        <ele>389</ele>
        <time>2018-03-18T09:29:27Z</time>
      </trkpt>
      <trkpt lat="43.54205" lon="5.89324">
        <ele>390</ele>
        <time>2018-03-18T09:29:30Z</time>
      </trkpt>
      <trkpt lat="43.54186" lon="5.89318">
        <ele>390</ele>
        <time>2018-03-18T09:29:33Z</time>
      </trkpt>
      <trkpt lat="43.54165" lon="5.89316">
        <ele>389</ele>
        <time>2018-03-18T09:29:36Z</time>
      </trkpt>
      <trkpt lat="43.54144" lon="5.8932">
        <ele>389</ele>
        <time>2018-03-18T09:29:39Z</time>
      </trkpt>
      <trkpt lat="43.54123" lon="5.89331">
        <ele>389</ele>
        <time>2018-03-18T09:29:42Z</time>
      </trkpt>
      <trkpt lat="43.54101" lon="5.89344">
        <ele>385</ele>
        <time>2018-03-18T09:29:45Z</time>
      </trkpt>
      <trkpt lat="43.54079" lon="5.89354">
        <ele>384</ele>
        <time>2018-03-18T09:29:48Z</time>
      </trkpt>
      <trkpt lat="43.54059" lon="5.8936">
        <ele>383</ele>
        <time>2018-03-18T09:29:51Z</time>
      </trkpt>
      <trkpt lat="43.54037" lon="5.89355">
        <ele>383</ele>
        <time>2018-03-18T09:29:56Z</time>
      </trkpt>
      <trkpt lat="43.54013" lon="5.89347">
        <ele>382</ele>
        <time>2018-03-18T09:30:00Z</time>
      </trkpt>
      <trkpt lat="43.53991" lon="5.89339">
        <ele>382</ele>
        <time>2018-03-18T09:30:03Z</time>
      </trkpt>
      <trkpt lat="43.53967" lon="5.89329">
        <ele>381</ele>
        <time>2018-03-18T09:30:06Z</time>
      </trkpt>
      <trkpt lat="43.53946" lon="5.89312">
        <ele>381</ele>
        <time>2018-03-18T09:30:09Z</time>
      </trkpt>
      <trkpt lat="43.53927" lon="5.89303">
        <ele>381</ele>
        <time>2018-03-18T09:30:12Z</time>
      </trkpt>
      <trkpt lat="43.53908" lon="5.893">
        <ele>380</ele>
        <time>2018-03-18T09:30:15Z</time>
      </trkpt>
      <trkpt lat="43.53887" lon="5.89304">
        <ele>380</ele>
        <time>2018-03-18T09:30:19Z</time>
      </trkpt>
      <trkpt lat="43.53869" lon="5.89301">
        <ele>380</ele>
        <time>2018-03-18T09:30:22Z</time>
      </trkpt>
      <trkpt lat="43.53849" lon="5.89299">
        <ele>380</ele>
        <time>2018-03-18T09:30:25Z</time>
      </trkpt>
      <trkpt lat="43.53829" lon="5.8931">
        <ele>380</ele>
        <time>2018-03-18T09:30:28Z</time>
      </trkpt>
      <trkpt lat="43.53808" lon="5.89323">
        <ele>380</ele>
        <time>2018-03-18T09:30:31Z</time>
      </trkpt>
      <trkpt lat="43.53785" lon="5.89335">
        <ele>381</ele>
        <time>2018-03-18T09:30:34Z</time>
      </trkpt>
      <trkpt lat="43.53762" lon="5.89346">
        <ele>380</ele>
        <time>2018-03-18T09:30:37Z</time>
      </trkpt>
      <trkpt lat="43.53741" lon="5.89357">
        <ele>379</ele>
        <time>2018-03-18T09:30:40Z</time>
      </trkpt>
      <trkpt lat="43.5372" lon="5.89367">
        <ele>379</ele>
        <time>2018-03-18T09:30:43Z</time>
      </trkpt>
      <trkpt lat="43.53699" lon="5.89373">
        <ele>379</ele>
        <time>2018-03-18T09:30:46Z</time>
      </trkpt>
      <trkpt lat="43.53679" lon="5.89383">
        <ele>379</ele>
        <time>2018-03-18T09:30:49Z</time>
      </trkpt>
      <trkpt lat="43.53661" lon="5.89392">
        <ele>377</ele>
        <time>2018-03-18T09:30:52Z</time>
      </trkpt>
      <trkpt lat="43.53643" lon="5.89399">
        <ele>377</ele>
        <time>2018-03-18T09:30:55Z</time>
      </trkpt>
      <trkpt lat="43.5362" lon="5.89399">
        <ele>376</ele>
        <time>2018-03-18T09:30:59Z</time>
      </trkpt>
      <trkpt lat="43.53601" lon="5.8939">
        <ele>376</ele>
        <time>2018-03-18T09:31:03Z</time>
      </trkpt>
      <trkpt lat="43.53584" lon="5.89382">
        <ele>376</ele>
        <time>2018-03-18T09:31:09Z</time>
      </trkpt>
      <trkpt lat="43.53566" lon="5.89371">
        <ele>378</ele>
        <time>2018-03-18T09:31:16Z</time>
      </trkpt>
      <trkpt lat="43.53547" lon="5.89363">
        <ele>379</ele>
        <time>2018-03-18T09:31:23Z</time>
      </trkpt>
      <trkpt lat="43.53527" lon="5.89363">
        <ele>380</ele>
        <time>2018-03-18T09:31:30Z</time>
      </trkpt>
      <trkpt lat="43.53517" lon="5.89364">
        <ele>380</ele>
        <time>2018-03-18T09:33:34Z</time>
      </trkpt>
      <trkpt lat="43.53523" lon="5.89339">
        <ele>381</ele>
        <time>2018-03-18T09:34:36Z</time>
      </trkpt>
      <trkpt lat="43.53521" lon="5.89314">
        <ele>384</ele>
        <time>2018-03-18T09:34:46Z</time>
      </trkpt>
      <trkpt lat="43.53517" lon="5.89289">
        <ele>385</ele>
        <time>2018-03-18T09:34:57Z</time>
      </trkpt>
      <trkpt lat="43.53513" lon="5.89265">
        <ele>386</ele>
        <time>2018-03-18T09:35:09Z</time>
      </trkpt>
      <trkpt lat="43.53506" lon="5.89241">
        <ele>389</ele>
        <time>2018-03-18T09:35:21Z</time>
      </trkpt>
      <trkpt lat="43.53502" lon="5.89216">
        <ele>389</ele>
        <time>2018-03-18T09:35:33Z</time>
      </trkpt>
      <trkpt lat="43.53496" lon="5.89192">
        <ele>391</ele>
        <time>2018-03-18T09:35:46Z</time>
      </trkpt>
      <trkpt lat="43.53491" lon="5.89166">
        <ele>392</ele>
        <time>2018-03-18T09:36:00Z</time>
      </trkpt>
      <trkpt lat="43.53484" lon="5.89143">
        <ele>394</ele>
        <time>2018-03-18T09:36:13Z</time>
      </trkpt>
      <trkpt lat="43.53476" lon="5.89119">
        <ele>395</ele>
        <time>2018-03-18T09:36:28Z</time>
      </trkpt>
      <trkpt lat="43.53471" lon="5.89094">
        <ele>395</ele>
        <time>2018-03-18T09:36:41Z</time>
      </trkpt>
      <trkpt lat="43.53461" lon="5.89073">
        <ele>398</ele>
        <time>2018-03-18T09:37:15Z</time>
      </trkpt>
      <trkpt lat="43.53462" lon="5.89046">
        <ele>398</ele>
        <time>2018-03-18T09:37:27Z</time>
      </trkpt>
      <trkpt lat="43.53459" lon="5.89019">
        <ele>398</ele>
        <time>2018-03-18T09:37:36Z</time>
      </trkpt>
      <trkpt lat="43.53443" lon="5.89006">
        <ele>400</ele>
        <time>2018-03-18T09:37:45Z</time>
      </trkpt>
      <trkpt lat="43.53425" lon="5.89">
        <ele>403</ele>
        <time>2018-03-18T09:37:54Z</time>
      </trkpt>
      <trkpt lat="43.53406" lon="5.88991">
        <ele>406</ele>
        <time>2018-03-18T09:38:03Z</time>
      </trkpt>
      <trkpt lat="43.5339" lon="5.88979">
        <ele>407</ele>
        <time>2018-03-18T09:38:11Z</time>
      </trkpt>
      <trkpt lat="43.53376" lon="5.88962">
        <ele>408</ele>
        <time>2018-03-18T09:38:18Z</time>
      </trkpt>
      <trkpt lat="43.53364" lon="5.88939">
        <ele>408</ele>
        <time>2018-03-18T09:38:26Z</time>
      </trkpt>
      <trkpt lat="43.53353" lon="5.8892">
        <ele>408</ele>
        <time>2018-03-18T09:38:33Z</time>
      </trkpt>
      <trkpt lat="43.53342" lon="5.889">
        <ele>408</ele>
        <time>2018-03-18T09:38:42Z</time>
      </trkpt>
      <trkpt lat="43.5333" lon="5.88879">
        <ele>413</ele>
        <time>2018-03-18T09:38:54Z</time>
      </trkpt>
      <trkpt lat="43.53318" lon="5.88858">
        <ele>413</ele>
        <time>2018-03-18T09:39:04Z</time>
      </trkpt>
      <trkpt lat="43.53305" lon="5.8884">
        <ele>413</ele>
        <time>2018-03-18T09:39:13Z</time>
      </trkpt>
      <trkpt lat="43.53289" lon="5.88828">
        <ele>411</ele>
        <time>2018-03-18T09:39:22Z</time>
      </trkpt>
      <trkpt lat="43.53272" lon="5.88814">
        <ele>413</ele>
        <time>2018-03-18T09:39:31Z</time>
      </trkpt>
      <trkpt lat="43.53256" lon="5.888">
        <ele>413</ele>
        <time>2018-03-18T09:39:40Z</time>
      </trkpt>
      <trkpt lat="43.53241" lon="5.88784">
        <ele>418</ele>
        <time>2018-03-18T09:39:48Z</time>
      </trkpt>
      <trkpt lat="43.5322" lon="5.88776">
        <ele>419</ele>
        <time>2018-03-18T09:41:13Z</time>
      </trkpt>
      <trkpt lat="43.53202" lon="5.8877">
        <ele>420</ele>
        <time>2018-03-18T09:44:02Z</time>
      </trkpt>
      <trkpt lat="43.53184" lon="5.88768">
        <ele>421</ele>
        <time>2018-03-18T09:44:11Z</time>
      </trkpt>
      <trkpt lat="43.53165" lon="5.88765">
        <ele>425</ele>
        <time>2018-03-18T09:44:20Z</time>
      </trkpt>
      <trkpt lat="43.53147" lon="5.8876">
        <ele>426</ele>
        <time>2018-03-18T09:44:30Z</time>
      </trkpt>
      <trkpt lat="43.53127" lon="5.8876">
        <ele>428</ele>
        <time>2018-03-18T09:44:40Z</time>
      </trkpt>
      <trkpt lat="43.53109" lon="5.88764">
        <ele>430</ele>
        <time>2018-03-18T09:44:50Z</time>
      </trkpt>
      <trkpt lat="43.53091" lon="5.88771">
        <ele>431</ele>
        <time>2018-03-18T09:45:01Z</time>
      </trkpt>
      <trkpt lat="43.53072" lon="5.88775">
        <ele>435</ele>
        <time>2018-03-18T09:45:11Z</time>
      </trkpt>
      <trkpt lat="43.53053" lon="5.8877">
        <ele>435</ele>
        <time>2018-03-18T09:45:22Z</time>
      </trkpt>
      <trkpt lat="43.53035" lon="5.88774">
        <ele>436</ele>
        <time>2018-03-18T09:45:32Z</time>
      </trkpt>
      <trkpt lat="43.53017" lon="5.88779">
        <ele>437</ele>
        <time>2018-03-18T09:45:44Z</time>
      </trkpt>
      <trkpt lat="43.52998" lon="5.88777">
        <ele>440</ele>
        <time>2018-03-18T09:45:55Z</time>
      </trkpt>
      <trkpt lat="43.52979" lon="5.88775">
        <ele>440</ele>
        <time>2018-03-18T09:46:07Z</time>
      </trkpt>
      <trkpt lat="43.52961" lon="5.88766">
        <ele>440</ele>
        <time>2018-03-18T09:46:18Z</time>
      </trkpt>
      <trkpt lat="43.52943" lon="5.88761">
        <ele>441</ele>
        <time>2018-03-18T09:46:28Z</time>
      </trkpt>
      <trkpt lat="43.52924" lon="5.88765">
        <ele>441</ele>
        <time>2018-03-18T09:46:40Z</time>
      </trkpt>
      <trkpt lat="43.52905" lon="5.88767">
        <ele>444</ele>
        <time>2018-03-18T09:46:51Z</time>
      </trkpt>
      <trkpt lat="43.52887" lon="5.88767">
        <ele>445</ele>
        <time>2018-03-18T09:47:02Z</time>
      </trkpt>
      <trkpt lat="43.52868" lon="5.88772">
        <ele>446</ele>
        <time>2018-03-18T09:47:14Z</time>
      </trkpt>
      <trkpt lat="43.5285" lon="5.88782">
        <ele>447</ele>
        <time>2018-03-18T09:47:27Z</time>
      </trkpt>
      <trkpt lat="43.52832" lon="5.88789">
        <ele>450</ele>
        <time>2018-03-18T09:47:40Z</time>
      </trkpt>
      <trkpt lat="43.52815" lon="5.88798">
        <ele>450</ele>
        <time>2018-03-18T09:47:52Z</time>
      </trkpt>
      <trkpt lat="43.52803" lon="5.88816">
        <ele>450</ele>
        <time>2018-03-18T09:48:05Z</time>
      </trkpt>
      <trkpt lat="43.52784" lon="5.88819">
        <ele>451</ele>
        <time>2018-03-18T09:48:17Z</time>
      </trkpt>
      <trkpt lat="43.52766" lon="5.88817">
        <ele>451</ele>
        <time>2018-03-18T09:48:26Z</time>
      </trkpt>
      <trkpt lat="43.52748" lon="5.88809">
        <ele>450</ele>
        <time>2018-03-18T09:48:34Z</time>
      </trkpt>
      <trkpt lat="43.52729" lon="5.88802">
        <ele>450</ele>
        <time>2018-03-18T09:48:43Z</time>
      </trkpt>
      <trkpt lat="43.52709" lon="5.888">
        <ele>449</ele>
        <time>2018-03-18T09:48:50Z</time>
      </trkpt>
      <trkpt lat="43.5269" lon="5.88813">
        <ele>448</ele>
        <time>2018-03-18T09:49:01Z</time>
      </trkpt>
      <trkpt lat="43.5267" lon="5.8882">
        <ele>446</ele>
        <time>2018-03-18T09:49:07Z</time>
      </trkpt>
      <trkpt lat="43.52652" lon="5.88834">
        <ele>444</ele>
        <time>2018-03-18T09:49:11Z</time>
      </trkpt>
      <trkpt lat="43.52637" lon="5.88859">
        <ele>443</ele>
        <time>2018-03-18T09:49:15Z</time>
      </trkpt>
      <trkpt lat="43.52619" lon="5.88878">
        <ele>443</ele>
        <time>2018-03-18T09:49:19Z</time>
      </trkpt>
      <trkpt lat="43.52599" lon="5.88894">
        <ele>442</ele>
        <time>2018-03-18T09:49:23Z</time>
      </trkpt>
      <trkpt lat="43.52579" lon="5.88909">
        <ele>439</ele>
        <time>2018-03-18T09:49:27Z</time>
      </trkpt>
      <trkpt lat="43.52558" lon="5.88922">
        <ele>438</ele>
        <time>2018-03-18T09:49:31Z</time>
      </trkpt>
      <trkpt lat="43.52539" lon="5.88937">
        <ele>438</ele>
        <time>2018-03-18T09:49:35Z</time>
      </trkpt>
      <trkpt lat="43.5252" lon="5.88956">
        <ele>437</ele>
        <time>2018-03-18T09:49:39Z</time>
      </trkpt>
      <trkpt lat="43.525" lon="5.88968">
        <ele>436</ele>
        <time>2018-03-18T09:49:43Z</time>
      </trkpt>
      <trkpt lat="43.52478" lon="5.88978">
        <ele>434</ele>
        <time>2018-03-18T09:49:47Z</time>
      </trkpt>
      <trkpt lat="43.52454" lon="5.88987">
        <ele>434</ele>
        <time>2018-03-18T09:49:51Z</time>
      </trkpt>
      <trkpt lat="43.52436" lon="5.88997">
        <ele>433</ele>
        <time>2018-03-18T09:49:54Z</time>
      </trkpt>
      <trkpt lat="43.52418" lon="5.89006">
        <ele>431</ele>
        <time>2018-03-18T09:49:57Z</time>
      </trkpt>
      <trkpt lat="43.524" lon="5.89014">
        <ele>430</ele>
        <time>2018-03-18T09:50:00Z</time>
      </trkpt>
      <trkpt lat="43.52379" lon="5.89026">
        <ele>429</ele>
        <time>2018-03-18T09:50:04Z</time>
      </trkpt>
      <trkpt lat="43.52358" lon="5.89036">
        <ele>429</ele>
        <time>2018-03-18T09:50:08Z</time>
      </trkpt>
      <trkpt lat="43.5234" lon="5.89035">
        <ele>429</ele>
        <time>2018-03-18T09:50:11Z</time>
      </trkpt>
      <trkpt lat="43.52322" lon="5.89031">
        <ele>426</ele>
        <time>2018-03-18T09:50:14Z</time>
      </trkpt>
      <trkpt lat="43.52304" lon="5.89025">
        <ele>425</ele>
        <time>2018-03-18T09:50:17Z</time>
      </trkpt>
      <trkpt lat="43.52285" lon="5.89019">
        <ele>425</ele>
        <time>2018-03-18T09:50:20Z</time>
      </trkpt>
      <trkpt lat="43.52265" lon="5.89015">
        <ele>423</ele>
        <time>2018-03-18T09:50:23Z</time>
      </trkpt>
      <trkpt lat="43.52246" lon="5.89014">
        <ele>421</ele>
        <time>2018-03-18T09:50:26Z</time>
      </trkpt>
      <trkpt lat="43.52224" lon="5.89014">
        <ele>421</ele>
        <time>2018-03-18T09:50:30Z</time>
      </trkpt>
      <trkpt lat="43.52204" lon="5.89011">
        <ele>421</ele>
        <time>2018-03-18T09:50:33Z</time>
      </trkpt>
      <trkpt lat="43.52185" lon="5.89008">
        <ele>420</ele>
        <time>2018-03-18T09:50:36Z</time>
      </trkpt>
      <trkpt lat="43.52161" lon="5.89004">
        <ele>418</ele>
        <time>2018-03-18T09:50:40Z</time>
      </trkpt>
      <trkpt lat="43.5214" lon="5.88999">
        <ele>417</ele>
        <time>2018-03-18T09:50:44Z</time>
      </trkpt>
      <trkpt lat="43.52117" lon="5.88992">
        <ele>416</ele>
        <time>2018-03-18T09:50:48Z</time>
      </trkpt>
      <trkpt lat="43.52094" lon="5.8899">
        <ele>415</ele>
        <time>2018-03-18T09:50:52Z</time>
      </trkpt>
      <trkpt lat="43.52072" lon="5.88987">
        <ele>412</ele>
        <time>2018-03-18T09:50:56Z</time>
      </trkpt>
      <trkpt lat="43.52052" lon="5.88985">
        <ele>412</ele>
        <time>2018-03-18T09:51:00Z</time>
      </trkpt>
      <trkpt lat="43.52029" lon="5.88983">
        <ele>411</ele>
        <time>2018-03-18T09:51:04Z</time>
      </trkpt>
      <trkpt lat="43.5201" lon="5.8898">
        <ele>410</ele>
        <time>2018-03-18T09:51:07Z</time>
      </trkpt>
      <trkpt lat="43.51987" lon="5.88974">
        <ele>408</ele>
        <time>2018-03-18T09:51:11Z</time>
      </trkpt>
      <trkpt lat="43.51967" lon="5.88967">
        <ele>408</ele>
        <time>2018-03-18T09:51:15Z</time>
      </trkpt>
      <trkpt lat="43.51952" lon="5.88947">
        <ele>407</ele>
        <time>2018-03-18T09:51:19Z</time>
      </trkpt>
      <trkpt lat="43.51939" lon="5.88921">
        <ele>406</ele>
        <time>2018-03-18T09:51:23Z</time>
      </trkpt>
      <trkpt lat="43.51923" lon="5.88899">
        <ele>405</ele>
        <time>2018-03-18T09:51:27Z</time>
      </trkpt>
      <trkpt lat="43.51905" lon="5.88889">
        <ele>402</ele>
        <time>2018-03-18T09:51:31Z</time>
      </trkpt>
      <trkpt lat="43.51887" lon="5.88873">
        <ele>402</ele>
        <time>2018-03-18T09:51:35Z</time>
      </trkpt>
      <trkpt lat="43.51875" lon="5.8885">
        <ele>402</ele>
        <time>2018-03-18T09:51:39Z</time>
      </trkpt>
      <trkpt lat="43.51857" lon="5.88842">
        <ele>402</ele>
        <time>2018-03-18T09:51:43Z</time>
      </trkpt>
      <trkpt lat="43.51839" lon="5.88848">
        <ele>401</ele>
        <time>2018-03-18T09:51:48Z</time>
      </trkpt>
      <trkpt lat="43.5182" lon="5.88859">
        <ele>399</ele>
        <time>2018-03-18T09:51:53Z</time>
      </trkpt>
      <trkpt lat="43.51804" lon="5.88877">
        <ele>398</ele>
        <time>2018-03-18T09:51:57Z</time>
      </trkpt>
      <trkpt lat="43.51786" lon="5.88893">
        <ele>397</ele>
        <time>2018-03-18T09:52:01Z</time>
      </trkpt>
      <trkpt lat="43.51765" lon="5.88897">
        <ele>396</ele>
        <time>2018-03-18T09:52:05Z</time>
      </trkpt>
      <trkpt lat="43.51744" lon="5.88894">
        <ele>395</ele>
        <time>2018-03-18T09:52:09Z</time>
      </trkpt>
      <trkpt lat="43.5173" lon="5.8891">
        <ele>395</ele>
        <time>2018-03-18T09:52:13Z</time>
      </trkpt>
      <trkpt lat="43.51716" lon="5.88931">
        <ele>394</ele>
        <time>2018-03-18T09:52:17Z</time>
      </trkpt>
      <trkpt lat="43.51702" lon="5.88953">
        <ele>394</ele>
        <time>2018-03-18T09:52:21Z</time>
      </trkpt>
      <trkpt lat="43.51685" lon="5.88966">
        <ele>394</ele>
        <time>2018-03-18T09:52:25Z</time>
      </trkpt>
      <trkpt lat="43.51665" lon="5.88958">
        <ele>391</ele>
        <time>2018-03-18T09:52:29Z</time>
      </trkpt>
      <trkpt lat="43.51648" lon="5.88966">
        <ele>391</ele>
        <time>2018-03-18T09:52:33Z</time>
      </trkpt>
      <trkpt lat="43.5163" lon="5.88978">
        <ele>390</ele>
        <time>2018-03-18T09:52:37Z</time>
      </trkpt>
      <trkpt lat="43.51608" lon="5.8898">
        <ele>389</ele>
        <time>2018-03-18T09:52:41Z</time>
      </trkpt>
      <trkpt lat="43.51593" lon="5.88962">
        <ele>389</ele>
        <time>2018-03-18T09:52:45Z</time>
      </trkpt>
      <trkpt lat="43.51579" lon="5.88943">
        <ele>386</ele>
        <time>2018-03-18T09:52:49Z</time>
      </trkpt>
      <trkpt lat="43.51555" lon="5.88941">
        <ele>386</ele>
        <time>2018-03-18T09:52:53Z</time>
      </trkpt>
      <trkpt lat="43.51534" lon="5.88943">
        <ele>385</ele>
        <time>2018-03-18T09:52:57Z</time>
      </trkpt>
      <trkpt lat="43.51514" lon="5.8893">
        <ele>383</ele>
        <time>2018-03-18T09:53:01Z</time>
      </trkpt>
      <trkpt lat="43.51498" lon="5.88909">
        <ele>380</ele>
        <time>2018-03-18T09:53:05Z</time>
      </trkpt>
      <trkpt lat="43.51484" lon="5.88888">
        <ele>380</ele>
        <time>2018-03-18T09:53:09Z</time>
      </trkpt>
      <trkpt lat="43.51464" lon="5.88876">
        <ele>379</ele>
        <time>2018-03-18T09:53:13Z</time>
      </trkpt>
      <trkpt lat="43.51445" lon="5.88881">
        <ele>379</ele>
        <time>2018-03-18T09:53:17Z</time>
      </trkpt>
      <trkpt lat="43.51429" lon="5.88864">
        <ele>378</ele>
        <time>2018-03-18T09:53:23Z</time>
      </trkpt>
      <trkpt lat="43.51423" lon="5.88835">
        <ele>375</ele>
        <time>2018-03-18T09:53:28Z</time>
      </trkpt>
      <trkpt lat="43.51404" lon="5.88832">
        <ele>372</ele>
        <time>2018-03-18T09:53:33Z</time>
      </trkpt>
      <trkpt lat="43.51386" lon="5.88841">
        <ele>372</ele>
        <time>2018-03-18T09:53:37Z</time>
      </trkpt>
      <trkpt lat="43.51365" lon="5.88841">
        <ele>371</ele>
        <time>2018-03-18T09:53:41Z</time>
      </trkpt>
      <trkpt lat="43.5136" lon="5.88813">
        <ele>369</ele>
        <time>2018-03-18T09:53:46Z</time>
      </trkpt>
      <trkpt lat="43.51353" lon="5.8879">
        <ele>369</ele>
        <time>2018-03-18T09:53:51Z</time>
      </trkpt>
      <trkpt lat="43.51335" lon="5.88794">
        <ele>369</ele>
        <time>2018-03-18T09:53:59Z</time>
      </trkpt>
      <trkpt lat="43.5132" lon="5.88808">
        <ele>365</ele>
        <time>2018-03-18T09:54:04Z</time>
      </trkpt>
      <trkpt lat="43.51302" lon="5.88818">
        <ele>365</ele>
        <time>2018-03-18T09:54:12Z</time>
      </trkpt>
      <trkpt lat="43.51284" lon="5.88807">
        <ele>365</ele>
        <time>2018-03-18T09:54:19Z</time>
      </trkpt>
      <trkpt lat="43.51281" lon="5.88781">
        <ele>364</ele>
        <time>2018-03-18T09:54:26Z</time>
      </trkpt>
      <trkpt lat="43.51271" lon="5.88758">
        <ele>362</ele>
        <time>2018-03-18T09:54:31Z</time>
      </trkpt>
      <trkpt lat="43.51255" lon="5.88741">
        <ele>360</ele>
        <time>2018-03-18T09:54:36Z</time>
      </trkpt>
      <trkpt lat="43.51239" lon="5.88725">
        <ele>360</ele>
        <time>2018-03-18T09:54:41Z</time>
      </trkpt>
      <trkpt lat="43.51222" lon="5.88711">
        <ele>360</ele>
        <time>2018-03-18T09:54:50Z</time>
      </trkpt>
      <trkpt lat="43.51203" lon="5.8871">
        <ele>360</ele>
        <time>2018-03-18T09:54:56Z</time>
      </trkpt>
      <trkpt lat="43.51182" lon="5.88706">
        <ele>360</ele>
        <time>2018-03-18T09:55:01Z</time>
      </trkpt>
      <trkpt lat="43.5116" lon="5.88705">
        <ele>361</ele>
        <time>2018-03-18T09:55:06Z</time>
      </trkpt>
      <trkpt lat="43.51149" lon="5.88687">
        <ele>361</ele>
        <time>2018-03-18T09:55:10Z</time>
      </trkpt>
      <trkpt lat="43.51129" lon="5.88671">
        <ele>361</ele>
        <time>2018-03-18T09:55:15Z</time>
      </trkpt>
      <trkpt lat="43.5111" lon="5.88669">
        <ele>361</ele>
        <time>2018-03-18T09:55:19Z</time>
      </trkpt>
      <trkpt lat="43.51101" lon="5.88645">
        <ele>358</ele>
        <time>2018-03-18T09:55:24Z</time>
      </trkpt>
      <trkpt lat="43.51102" lon="5.88616">
        <ele>357</ele>
        <time>2018-03-18T09:55:28Z</time>
      </trkpt>
      <trkpt lat="43.51099" lon="5.8859">
        <ele>356</ele>
        <time>2018-03-18T09:55:31Z</time>
      </trkpt>
      <trkpt lat="43.51092" lon="5.88566">
        <ele>354</ele>
        <time>2018-03-18T09:55:34Z</time>
      </trkpt>
      <trkpt lat="43.51078" lon="5.88542">
        <ele>351</ele>
        <time>2018-03-18T09:55:38Z</time>
      </trkpt>
      <trkpt lat="43.51063" lon="5.88528">
        <ele>350</ele>
        <time>2018-03-18T09:55:41Z</time>
      </trkpt>
      <trkpt lat="43.51043" lon="5.88511">
        <ele>349</ele>
        <time>2018-03-18T09:55:45Z</time>
      </trkpt>
      <trkpt lat="43.51021" lon="5.885">
        <ele>346</ele>
        <time>2018-03-18T09:55:49Z</time>
      </trkpt>
      <trkpt lat="43.51003" lon="5.88497">
        <ele>342</ele>
        <time>2018-03-18T09:55:52Z</time>
      </trkpt>
      <trkpt lat="43.50983" lon="5.88496">
        <ele>341</ele>
        <time>2018-03-18T09:55:55Z</time>
      </trkpt>
      <trkpt lat="43.50963" lon="5.88497">
        <ele>341</ele>
        <time>2018-03-18T09:55:58Z</time>
      </trkpt>
      <trkpt lat="43.50945" lon="5.88498">
        <ele>341</ele>
        <time>2018-03-18T09:56:01Z</time>
      </trkpt>
      <trkpt lat="43.50924" lon="5.88488">
        <ele>342</ele>
        <time>2018-03-18T09:56:05Z</time>
      </trkpt>
      <trkpt lat="43.50911" lon="5.88468">
        <ele>339</ele>
        <time>2018-03-18T09:56:09Z</time>
      </trkpt>
      <trkpt lat="43.50893" lon="5.88449">
        <ele>337</ele>
        <time>2018-03-18T09:56:13Z</time>
      </trkpt>
      <trkpt lat="43.50875" lon="5.88437">
        <ele>336</ele>
        <time>2018-03-18T09:56:16Z</time>
      </trkpt>
      <trkpt lat="43.50855" lon="5.88418">
        <ele>334</ele>
        <time>2018-03-18T09:56:20Z</time>
      </trkpt>
      <trkpt lat="43.50838" lon="5.88406">
        <ele>331</ele>
        <time>2018-03-18T09:56:23Z</time>
      </trkpt>
      <trkpt lat="43.50823" lon="5.8838">
        <ele>329</ele>
        <time>2018-03-18T09:56:27Z</time>
      </trkpt>
      <trkpt lat="43.50824" lon="5.88352">
        <ele>330</ele>
        <time>2018-03-18T09:56:30Z</time>
      </trkpt>
      <trkpt lat="43.50823" lon="5.88326">
        <ele>333</ele>
        <time>2018-03-18T09:56:33Z</time>
      </trkpt>
      <trkpt lat="43.50814" lon="5.88304">
        <ele>335</ele>
        <time>2018-03-18T09:56:36Z</time>
      </trkpt>
      <trkpt lat="43.50798" lon="5.88291">
        <ele>336</ele>
        <time>2018-03-18T09:56:39Z</time>
      </trkpt>
      <trkpt lat="43.50779" lon="5.88288">
        <ele>335</ele>
        <time>2018-03-18T09:56:42Z</time>
      </trkpt>
      <trkpt lat="43.5076" lon="5.88293">
        <ele>335</ele>
        <time>2018-03-18T09:56:45Z</time>
      </trkpt>
      <trkpt lat="43.50744" lon="5.88308">
        <ele>334</ele>
        <time>2018-03-18T09:56:48Z</time>
      </trkpt>
      <trkpt lat="43.50732" lon="5.88335">
        <ele>327</ele>
        <time>2018-03-18T09:56:52Z</time>
      </trkpt>
      <trkpt lat="43.50722" lon="5.88355">
        <ele>328</ele>
        <time>2018-03-18T09:56:55Z</time>
      </trkpt>
      <trkpt lat="43.50709" lon="5.88374">
        <ele>329</ele>
        <time>2018-03-18T09:56:58Z</time>
      </trkpt>
      <trkpt lat="43.50694" lon="5.88399">
        <ele>327</ele>
        <time>2018-03-18T09:57:02Z</time>
      </trkpt>
      <trkpt lat="43.50679" lon="5.88424">
        <ele>324</ele>
        <time>2018-03-18T09:57:06Z</time>
      </trkpt>
      <trkpt lat="43.50662" lon="5.88434">
        <ele>323</ele>
        <time>2018-03-18T09:57:09Z</time>
      </trkpt>
      <trkpt lat="43.50639" lon="5.88443">
        <ele>324</ele>
        <time>2018-03-18T09:57:13Z</time>
      </trkpt>
      <trkpt lat="43.50622" lon="5.8845">
        <ele>324</ele>
        <time>2018-03-18T09:57:16Z</time>
      </trkpt>
      <trkpt lat="43.50602" lon="5.8845">
        <ele>325</ele>
        <time>2018-03-18T09:57:19Z</time>
      </trkpt>
      <trkpt lat="43.50584" lon="5.88461">
        <ele>324</ele>
        <time>2018-03-18T09:57:22Z</time>
      </trkpt>
      <trkpt lat="43.50567" lon="5.88478">
        <ele>326</ele>
        <time>2018-03-18T09:57:25Z</time>
      </trkpt>
      <trkpt lat="43.50552" lon="5.88498">
        <ele>325</ele>
        <time>2018-03-18T09:57:28Z</time>
      </trkpt>
      <trkpt lat="43.50539" lon="5.88516">
        <ele>322</ele>
        <time>2018-03-18T09:57:32Z</time>
      </trkpt>
      <trkpt lat="43.50524" lon="5.88537">
        <ele>322</ele>
        <time>2018-03-18T09:57:36Z</time>
      </trkpt>
      <trkpt lat="43.50507" lon="5.88555">
        <ele>321</ele>
        <time>2018-03-18T09:57:40Z</time>
      </trkpt>
      <trkpt lat="43.50487" lon="5.8857">
        <ele>318</ele>
        <time>2018-03-18T09:57:44Z</time>
      </trkpt>
      <trkpt lat="43.50469" lon="5.88581">
        <ele>319</ele>
        <time>2018-03-18T09:57:47Z</time>
      </trkpt>
      <trkpt lat="43.50452" lon="5.88593">
        <ele>317</ele>
        <time>2018-03-18T09:57:50Z</time>
      </trkpt>
      <trkpt lat="43.50435" lon="5.88604">
        <ele>317</ele>
        <time>2018-03-18T09:57:53Z</time>
      </trkpt>
      <trkpt lat="43.50415" lon="5.88616">
        <ele>314</ele>
        <time>2018-03-18T09:57:57Z</time>
      </trkpt>
      <trkpt lat="43.50395" lon="5.88629">
        <ele>313</ele>
        <time>2018-03-18T09:58:01Z</time>
      </trkpt>
      <trkpt lat="43.50378" lon="5.88645">
        <ele>312</ele>
        <time>2018-03-18T09:58:05Z</time>
      </trkpt>
      <trkpt lat="43.50362" lon="5.88663">
        <ele>310</ele>
        <time>2018-03-18T09:58:09Z</time>
      </trkpt>
      <trkpt lat="43.50363" lon="5.88688">
        <ele>309</ele>
        <time>2018-03-18T09:58:15Z</time>
      </trkpt>
    </trkseg>
  </trk>
</gpx>